Observation data for Stamford on 08/13/2017      Previous  Date  Next       Current Mesonet Observations  Soil Data  Daily Summary Page  Observations in Plain Language
KST2 130501Z 05002KT 24/23 A2999 RMK A01 T02350227  RH  095%=      5-min Rain = 0
KST2 130502Z 05002KT 24/23 A2999 RMK A01 T02350227  RH  095%=      5-min Rain = 0
KST2 130503Z 06001KT 24/23 A2999 RMK A01 T02350227  RH  095%=      5-min Rain = 0
KST2 130504Z 07001KT 24/23 A2999 RMK A01 T02360228  RH  095%=      5-min Rain = 0
KST2 130505Z 07002KT 24/23 A2999 RMK A01 T02360228  RH  095%=      5-min Rain = 0
KST2 130506Z 06002KT 24/23 A2999 RMK A01 T02350227  RH  095%=      5-min Rain = 0
KST2 130507Z 05001KT 24/23 A2999 RMK A01 T02360228  RH  095%=      5-min Rain = 0
KST2 130508Z 05000KT 24/23 A2999 RMK A01 T02360228  RH  095%=      5-min Rain = 0
KST2 130509Z 05000KT 24/23 A2999 RMK A01 T02350227  RH  095%=      5-min Rain = 0
KST2 130510Z 05000KT 24/23 A2999 RMK A01 T02350227  RH  095%=      5-min Rain = 0
KST2 130511Z 05000KT 24/23 A2999 RMK A01 T02350227  RH  095%=      5-min Rain = 0
KST2 130512Z 00000KT 24/23 A2999 RMK A01 T02350228  RH  095%=      5-min Rain = 0
KST2 130513Z 05000KT 24/23 A2999 RMK A01 T02360227  RH  095%=      5-min Rain = 0
KST2 130514Z 04001KT 24/23 A2999 RMK A01 T02360227  RH  095%=      5-min Rain = 0
KST2 130515Z 03001KT 24/23 A2999 RMK A01 T02350227  RH  095%=      5-min Rain = 0
KST2 130516Z 04001KT 24/23 A2999 RMK A01 T02350227  RH  095%=      5-min Rain = 0
KST2 130517Z 06002KT 24/23 A2999 RMK A01 T02350227  RH  095%=      5-min Rain = 0
KST2 130518Z 08001KT 24/23 A2999 RMK A01 T02350226  RH  095%=      5-min Rain = 0
KST2 130519Z 08001KT 24/23 A2999 RMK A01 T02350226  RH  094%=      5-min Rain = 0
KST2 130520Z 07001KT 24/23 A2999 RMK A01 T02350226  RH  095%=      5-min Rain = 0
KST2 130521Z 05002KT 24/23 A2999 RMK A01 T02350227  RH  095%=      5-min Rain = 0
KST2 130522Z 07001KT 24/23 A2999 RMK A01 T02360227  RH  095%=      5-min Rain = 0
KST2 130523Z 09000KT 24/23 A2999 RMK A01 T02360228  RH  095%=      5-min Rain = 0
KST2 130524Z 09000KT 24/23 A2999 RMK A01 T02360228  RH  095%=      5-min Rain = 0
KST2 130525Z 11001KT 24/23 A2999 RMK A01 T02360227  RH  095%=      5-min Rain = 0
KST2 130526Z 00000KT 24/23 A2999 RMK A01 T02360227  RH  095%=      5-min Rain = 0
KST2 130527Z 09000KT 24/23 A2999 RMK A01 T02360226  RH  095%=      5-min Rain = 0
KST2 130528Z 00000KT 24/23 A2999 RMK A01 T02360227  RH  095%=      5-min Rain = 0
KST2 130529Z 00000KT 24/23 A2999 RMK A01 T02360228  RH  095%=      5-min Rain = 0
KST2 130530Z 00000KT 24/23 A2999 RMK A01 T02360227  RH  095%=      5-min Rain = 0
KST2 130531Z 17000KT 24/23 A2999 RMK A01 T02360226  RH  094%=      5-min Rain = 0
KST2 130532Z 17001KT 24/23 A2999 RMK A01 T02360226  RH  094%=      5-min Rain = 0
KST2 130533Z 00000KT 24/23 A2999 RMK A01 T02360227  RH  094%=      5-min Rain = 0
KST2 130534Z 00000KT 24/23 A2999 RMK A01 T02360226  RH  094%=      5-min Rain = 0
KST2 130535Z 00000KT 24/23 A2999 RMK A01 T02360226  RH  094%=      5-min Rain = 0
KST2 130536Z 00000KT 24/23 A2999 RMK A01 T02360226  RH  094%=      5-min Rain = 0
KST2 130537Z 00000KT 24/23 A2999 RMK A01 T02360227  RH  094%=      5-min Rain = 0
KST2 130538Z 00000KT 24/23 A2999 RMK A01 T02360226  RH  094%=      5-min Rain = 0
KST2 130539Z 00000KT 24/23 A2999 RMK A01 T02360226  RH  094%=      5-min Rain = 0
KST2 130540Z 00000KT 24/23 A2999 RMK A01 T02360226  RH  094%=      5-min Rain = 0
KST2 130541Z 00000KT 24/23 A2999 RMK A01 T02360226  RH  094%=      5-min Rain = 0
KST2 130542Z 00000KT 24/23 A2999 RMK A01 T02360227  RH  094%=      5-min Rain = 0
KST2 130543Z 00000KT 24/23 A2999 RMK A01 T02360226  RH  094%=      5-min Rain = 0
KST2 130544Z 29001KT 24/23 A2999 RMK A01 T02360226  RH  094%=      5-min Rain = 0
KST2 130545Z 30001KT 24/23 A2999 RMK A01 T02360226  RH  094%=      5-min Rain = 0
KST2 130546Z 31001KT 24/23 A2999 RMK A01 T02360226  RH  094%=      5-min Rain = 0
KST2 130547Z 32001KT 24/23 A30 RMK A01 T02360227  RH  094%=      5-min Rain = 0
KST2 130548Z 32001KT 24/23 A30 RMK A01 T02370227  RH  094%=      5-min Rain = 0
KST2 130549Z 30001KT 24/23 A30 RMK A01 T02360227  RH  094%=      5-min Rain = 0
KST2 130550Z 31002KT 24/23 A2999 RMK A01 T02370227  RH  094%=      5-min Rain = 0
KST2 130551Z 32002KT 24/23 A2999 RMK A01 T02370227  RH  094%=      5-min Rain = 0
KST2 130552Z 34002KT 24/23 A2999 RMK A01 T02370228  RH  095%=      5-min Rain = 0
KST2 130553Z 33002KT 24/23 A2999 RMK A01 T02380229  RH  095%=      5-min Rain = 0
KST2 130554Z 32002KT 24/23 A2999 RMK A01 T02370228  RH  095%=      5-min Rain = 0
KST2 130555Z 31002KT 24/23 A2999 RMK A01 T02370228  RH  095%=      5-min Rain = 0
KST2 130556Z 31001KT 24/23 A2999 RMK A01 T02370228  RH  095%=      5-min Rain = 0
KST2 130557Z 32001KT 24/23 A2999 RMK A01 T02380228  RH  095%=      5-min Rain = 0
KST2 130558Z 32001KT 24/23 A2999 RMK A01 T02380228  RH  094%=      5-min Rain = 0
KST2 130559Z 33001KT 24/23 A2999 RMK A01 T02370228  RH  094%=      5-min Rain = 0
KST2 130600Z 33001KT 24/23 A2998 RMK A01 T02370228  RH  094%=      5-min Rain = 0
KST2 130601Z 34001KT 24/23 A2998 RMK A01 T02370228  RH  095%=      5-min Rain = 0
KST2 130602Z 36002KT 24/23 A2998 RMK A01 T02370228  RH  095%=      5-min Rain = 0
KST2 130603Z 01002KT 24/23 A2998 RMK A01 T02370229  RH  095%=      5-min Rain = 0
KST2 130604Z 01002KT 24/23 A2998 RMK A01 T02370229  RH  095%=      5-min Rain = 0
KST2 130605Z 01002KT 24/23 A2998 RMK A01 T02370228  RH  095%=      5-min Rain = 0
KST2 130606Z 01002KT 24/23 A2998 RMK A01 T02370228  RH  095%=      5-min Rain = 0
KST2 130607Z 00002KT 24/23 A2998 RMK A01 T02360228  RH  095%=      5-min Rain = 0
KST2 130608Z 35002KT 24/23 A2998 RMK A01 T02360227  RH  095%=      5-min Rain = 0
KST2 130609Z 34002KT 24/23 A2998 RMK A01 T02360228  RH  095%=      5-min Rain = 0
KST2 130610Z 34002KT 24/23 A2998 RMK A01 T02360228  RH  095%=      5-min Rain = 0
KST2 130611Z 34002KT 24/23 A2998 RMK A01 T02360228  RH  095%=      5-min Rain = 0
KST2 130612Z 35003KT 24/23 A2998 RMK A01 T02360228  RH  095%=      5-min Rain = 0
KST2 130613Z 36003KT 24/23 A2998 RMK A01 T02360228  RH  095%=      5-min Rain = 0
KST2 130614Z 00003KT 24/23 A2998 RMK A01 T02360228  RH  095%=      5-min Rain = 0
KST2 130615Z 00002KT 24/23 A2998 RMK A01 T02360228  RH  095%=      5-min Rain = 0
KST2 130616Z 36002KT 24/23 A2998 RMK A01 T02360229  RH  095%=      5-min Rain = 0
KST2 130617Z 36003KT 24/23 A2998 RMK A01 T02360229  RH  096%=      5-min Rain = 0
KST2 130618Z 00003KT 24/23 A2998 RMK A01 T02360229  RH  096%=      5-min Rain = 0
KST2 130619Z 00003KT 24/23 A2998 RMK A01 T02360228  RH  095%=      5-min Rain = 0
KST2 130620Z 36003KT 24/23 A2998 RMK A01 T02350228  RH  095%=      5-min Rain = 0
KST2 130621Z 00003KT 24/23 A2998 RMK A01 T02350228  RH  096%=      5-min Rain = 0
KST2 130622Z 01003KT 24/23 A2998 RMK A01 T02350228  RH  096%=      5-min Rain = 0
KST2 130623Z 01003KT 24/23 A2997 RMK A01 T02350228  RH  096%=      5-min Rain = 0
KST2 130624Z 02003KT 24/23 A2997 RMK A01 T02350228  RH  096%=      5-min Rain = 0
KST2 130625Z 02003KT 24/23 A2997 RMK A01 T02350228  RH  096%=      5-min Rain = 0
KST2 130626Z 02003KT 24/23 A2997 RMK A01 T02350228  RH  096%=      5-min Rain = 0
KST2 130627Z 02002KT 24/23 A2997 RMK A01 T02350228  RH  096%=      5-min Rain = 0
KST2 130628Z 02002KT 23/23 A2997 RMK A01 T02340228  RH  096%=      5-min Rain = 0
KST2 130629Z 03002KT 23/23 A2997 RMK A01 T02340228  RH  096%=      5-min Rain = 0
KST2 130630Z 03002KT 23/23 A2997 RMK A01 T02340228  RH  096%=      5-min Rain = 0
KST2 130631Z 04002KT 23/23 A2997 RMK A01 T02340228  RH  096%=      5-min Rain = 0
KST2 130632Z 04002KT 23/23 A2997 RMK A01 T02340228  RH  096%=      5-min Rain = 0
KST2 130633Z 04002KT 23/23 A2996 RMK A01 T02340228  RH  096%=      5-min Rain = 0
KST2 130634Z 04002KT 23/23 A2996 RMK A01 T02340229  RH  096%=      5-min Rain = 0
KST2 130635Z 03002KT 23/23 A2996 RMK A01 T02340228  RH  096%=      5-min Rain = 0
KST2 130636Z 02002KT 23/23 A2996 RMK A01 T02340228  RH  096%=      5-min Rain = 0
KST2 130637Z 01002KT 23/23 A2997 RMK A01 T02340228  RH  097%=      5-min Rain = 0
KST2 130638Z 01001KT 23/23 A2997 RMK A01 T02340228  RH  097%=      5-min Rain = 0
KST2 130639Z 01001KT 23/23 A2997 RMK A01 T02340228  RH  097%=      5-min Rain = 0
KST2 130640Z 35001KT 23/23 A2997 RMK A01 T02340228  RH  097%=      5-min Rain = 0
KST2 130641Z 35002KT 23/23 A2997 RMK A01 T02340228  RH  097%=      5-min Rain = 0
KST2 130642Z 35002KT 23/23 A2997 RMK A01 T02340229  RH  097%=      5-min Rain = 0
KST2 130643Z 34002KT 23/23 A2997 RMK A01 T02340229  RH  097%=      5-min Rain = 0
KST2 130644Z 34002KT 23/23 A2997 RMK A01 T02340228  RH  097%=      5-min Rain = 0
KST2 130645Z 34002KT 23/23 A2997 RMK A01 T02340229  RH  097%=      5-min Rain = 0
KST2 130646Z 34002KT 23/23 A2997 RMK A01 T02340229  RH  097%=      5-min Rain = 0
KST2 130647Z 35002KT 24/23 A2997 RMK A01 T02350229  RH  097%=      5-min Rain = 0
KST2 130648Z 36003KT 23/23 A2997 RMK A01 T02340229  RH  097%=      5-min Rain = 0
KST2 130649Z 36003KT 23/23 A2997 RMK A01 T02340229  RH  097%=      5-min Rain = 0
KST2 130650Z 00002KT 23/23 A2996 RMK A01 T02340229  RH  097%=      5-min Rain = 0
KST2 130651Z 01003KT 23/23 A2996 RMK A01 T02340229  RH  097%=      5-min Rain = 0
KST2 130652Z 01003KT 23/23 A2996 RMK A01 T02340229  RH  097%=      5-min Rain = 0
KST2 130653Z 01003KT 23/23 A2996 RMK A01 T02340229  RH  097%=      5-min Rain = 0
KST2 130654Z 01003KT 23/23 A2996 RMK A01 T02340229  RH  097%=      5-min Rain = 0
KST2 130655Z 01003KT 23/23 A2996 RMK A01 T02340229  RH  097%=      5-min Rain = 0
KST2 130656Z 01003KT 23/23 A2996 RMK A01 T02340229  RH  097%=      5-min Rain = 0
KST2 130657Z 01003KT 23/23 A2996 RMK A01 T02340229  RH  097%=      5-min Rain = 0
KST2 130658Z 02003KT 23/23 A2996 RMK A01 T02340229  RH  097%=      5-min Rain = 0
KST2 130659Z 02003KT 23/23 A2996 RMK A01 T02330228  RH  097%=      5-min Rain = 0
KST2 130700Z 02004KT 23/23 A2996 RMK A01 T02330228  RH  097%=      5-min Rain = 0
KST2 130701Z 02004KT 23/23 A2996 RMK A01 T02330228  RH  097%=      5-min Rain = 0
KST2 130702Z 02004KT 23/23 A2996 RMK A01 T02330228  RH  097%=      5-min Rain = 0
KST2 130703Z 02004KT 23/23 A2996 RMK A01 T02330228  RH  097%=      5-min Rain = 0
KST2 130704Z 02004KT 23/23 A2996 RMK A01 T02330228  RH  097%=      5-min Rain = 0
KST2 130705Z 02004KT 23/23 A2996 RMK A01 T02330228  RH  097%=      5-min Rain = 0
KST2 130706Z 02003KT 23/23 A2996 RMK A01 T02330228  RH  097%=      5-min Rain = 0
KST2 130707Z 03003KT 23/23 A2996 RMK A01 T02330228  RH  097%=      5-min Rain = 0
KST2 130708Z 03003KT 23/23 A2996 RMK A01 T02330228  RH  097%=      5-min Rain = 0
KST2 130709Z 03004KT 23/23 A2996 RMK A01 T02330229  RH  097%=      5-min Rain = 0
KST2 130710Z 03003KT 23/23 A2996 RMK A01 T02330229  RH  097%=      5-min Rain = 0
KST2 130711Z 02003KT 23/23 A2996 RMK A01 T02330229  RH  097%=      5-min Rain = 0
KST2 130712Z 02003KT 23/23 A2996 RMK A01 T02320228  RH  097%=      5-min Rain = 0
KST2 130713Z 02003KT 23/23 A2996 RMK A01 T02320228  RH  097%=      5-min Rain = 0
KST2 130714Z 01003KT 23/23 A2996 RMK A01 T02320228  RH  097%=      5-min Rain = 0
KST2 130715Z 01003KT 23/23 A2996 RMK A01 T02320228  RH  098%=      5-min Rain = 0
KST2 130716Z 02003KT 23/23 A2996 RMK A01 T02320228  RH  098%=      5-min Rain = 0
KST2 130717Z 02003KT 23/23 A2996 RMK A01 T02320228  RH  097%=      5-min Rain = 0
KST2 130718Z 01002KT 23/23 A2996 RMK A01 T02320228  RH  098%=      5-min Rain = 0
KST2 130719Z 03002KT 23/23 A2996 RMK A01 T02320228  RH  098%=      5-min Rain = 0
KST2 130720Z 03002KT 23/23 A2996 RMK A01 T02320228  RH  098%=      5-min Rain = 0
KST2 130721Z 03002KT 23/23 A2996 RMK A01 T02320228  RH  098%=      5-min Rain = 0
KST2 130722Z 04002KT 23/23 A2996 RMK A01 T02320228  RH  098%=      5-min Rain = 0
KST2 130723Z 04001KT 23/23 A2996 RMK A01 T02320228  RH  098%=      5-min Rain = 0
KST2 130724Z 04001KT 23/23 A2996 RMK A01 T02320228  RH  098%=      5-min Rain = 0
KST2 130725Z 04000KT 23/23 A2996 RMK A01 T02320229  RH  098%=      5-min Rain = 0
KST2 130726Z 04001KT 23/23 A2996 RMK A01 T02320228  RH  098%=      5-min Rain = 0
KST2 130727Z 03000KT 23/23 A2996 RMK A01 T02320229  RH  098%=      5-min Rain = 0
KST2 130728Z 00001KT 23/23 A2996 RMK A01 T02320228  RH  098%=      5-min Rain = 0
KST2 130729Z 36001KT 23/23 A2996 RMK A01 T02320228  RH  098%=      5-min Rain = 0
KST2 130730Z 00002KT 23/23 A2996 RMK A01 T02320228  RH  098%=      5-min Rain = 0
KST2 130731Z 00002KT 23/23 A2996 RMK A01 T02320228  RH  098%=      5-min Rain = 0
KST2 130732Z 00001KT 23/23 A2996 RMK A01 T02320228  RH  098%=      5-min Rain = 0
KST2 130733Z 00001KT 23/23 A2996 RMK A01 T02320228  RH  098%=      5-min Rain = 0
KST2 130734Z 36001KT 23/23 A2996 RMK A01 T02330229  RH  098%=      5-min Rain = 0
KST2 130735Z 34001KT 23/23 A2996 RMK A01 T02320228  RH  098%=      5-min Rain = 0
KST2 130736Z 34001KT 23/23 A2995 RMK A01 T02330229  RH  098%=      5-min Rain = 0
KST2 130737Z 34001KT 23/23 A2995 RMK A01 T02320228  RH  098%=      5-min Rain = 0
KST2 130738Z 34001KT 23/23 A2995 RMK A01 T02320228  RH  098%=      5-min Rain = 0
KST2 130739Z 34000KT 23/23 A2995 RMK A01 T02320228  RH  098%=      5-min Rain = 0
KST2 130740Z 00000KT 23/23 A2995 RMK A01 T02320228  RH  098%=      5-min Rain = 0
KST2 130741Z 00000KT 23/23 A2995 RMK A01 T02320228  RH  097%=      5-min Rain = 0
KST2 130742Z 00000KT 23/23 A2995 RMK A01 T02330229  RH  098%=      5-min Rain = 0
KST2 130743Z 00000KT 23/23 A2995 RMK A01 T02320228  RH  098%=      5-min Rain = 0
KST2 130744Z 00000KT 23/23 A2995 RMK A01 T02320228  RH  098%=      5-min Rain = 0
KST2 130745Z 00000KT 23/23 A2995 RMK A01 T02320228  RH  097%=      5-min Rain = 0
KST2 130746Z 05001KT 23/23 A2995 RMK A01 T02320228  RH  097%=      5-min Rain = 0
KST2 130747Z 05001KT 23/23 A2995 RMK A01 T02320228  RH  097%=      5-min Rain = 0
KST2 130748Z 05001KT 23/23 A2995 RMK A01 T02330228  RH  097%=      5-min Rain = 0
KST2 130749Z 05001KT 23/23 A2995 RMK A01 T02320228  RH  097%=      5-min Rain = 0
KST2 130750Z 05001KT 23/23 A2995 RMK A01 T02320228  RH  097%=      5-min Rain = 0
KST2 130751Z 05000KT 23/23 A2995 RMK A01 T02320228  RH  097%=      5-min Rain = 0
KST2 130752Z 00000KT 23/23 A2995 RMK A01 T02320228  RH  097%=      5-min Rain = 0
KST2 130753Z 00000KT 23/23 A2995 RMK A01 T02310227  RH  097%=      5-min Rain = 0
KST2 130754Z 05000KT 23/23 A2995 RMK A01 T02310227  RH  097%=      5-min Rain = 0
KST2 130755Z 05001KT 23/23 A2995 RMK A01 T02310227  RH  097%=      5-min Rain = 0
KST2 130756Z 05001KT 23/23 A2995 RMK A01 T02310227  RH  097%=      5-min Rain = 0
KST2 130757Z 05001KT 23/23 A2995 RMK A01 T02310227  RH  098%=      5-min Rain = 0
KST2 130758Z 05002KT 23/23 A2995 RMK A01 T02310227  RH  098%=      5-min Rain = 0
KST2 130759Z 05002KT 23/23 A2995 RMK A01 T02310227  RH  098%=      5-min Rain = 0
KST2 130800Z 05002KT 23/23 A2995 RMK A01 T02320228  RH  098%=      5-min Rain = 0
KST2 130801Z 05002KT 23/23 A2995 RMK A01 T02310227  RH  097%=      5-min Rain = 0
KST2 130802Z 05001KT 23/23 A2995 RMK A01 T02310227  RH  098%=      5-min Rain = 0
KST2 130803Z 05001KT 23/23 A2995 RMK A01 T02310227  RH  098%=      5-min Rain = 0
KST2 130804Z 06001KT 23/23 A2995 RMK A01 T02310228  RH  098%=      5-min Rain = 0
KST2 130805Z 07001KT 23/23 A2995 RMK A01 T02320228  RH  098%=      5-min Rain = 0
KST2 130806Z 08001KT 23/23 A2995 RMK A01 T02320228  RH  098%=      5-min Rain = 0
KST2 130807Z 08001KT 23/23 A2995 RMK A01 T02320228  RH  098%=      5-min Rain = 0
KST2 130808Z 08001KT 23/23 A2995 RMK A01 T02320228  RH  098%=      5-min Rain = 0
KST2 130809Z 09002KT 23/23 A2995 RMK A01 T02320228  RH  098%=      5-min Rain = 0
KST2 130810Z 09002KT 23/23 A2995 RMK A01 T02320228  RH  098%=      5-min Rain = 0
KST2 130811Z 09002KT 23/23 A2995 RMK A01 T02320228  RH  098%=      5-min Rain = 0
KST2 130812Z 09002KT 23/23 A2995 RMK A01 T02320228  RH  098%=      5-min Rain = 0
KST2 130813Z 09002KT 23/23 A2995 RMK A01 T02320228  RH  098%=      5-min Rain = 0
KST2 130814Z 09002KT 23/23 A2995 RMK A01 T02320228  RH  098%=      5-min Rain = 0
KST2 130815Z 07002KT 23/23 A2995 RMK A01 T02320228  RH  098%=      5-min Rain = 0
KST2 130816Z 07002KT 23/23 A2995 RMK A01 T02320228  RH  098%=      5-min Rain = 0
KST2 130817Z 06002KT 23/23 A2995 RMK A01 T02320229  RH  098%=      5-min Rain = 0
KST2 130818Z 04002KT 23/23 A2995 RMK A01 T02320229  RH  098%=      5-min Rain = 0
KST2 130819Z 04002KT 23/23 A2995 RMK A01 T02320229  RH  098%=      5-min Rain = 0
KST2 130820Z 04002KT 23/23 A2995 RMK A01 T02320229  RH  098%=      5-min Rain = 0
KST2 130821Z 03003KT 23/23 A2995 RMK A01 T02320229  RH  098%=      5-min Rain = 0
KST2 130822Z 03003KT 23/23 A2996 RMK A01 T02320229  RH  098%=      5-min Rain = 0
KST2 130823Z 02003KT 23/23 A2996 RMK A01 T02320229  RH  098%=      5-min Rain = 0
KST2 130824Z 02003KT 23/23 A2996 RMK A01 T02320229  RH  098%=      5-min Rain = 0
KST2 130825Z 02003KT 23/23 A2995 RMK A01 T02320229  RH  098%=      5-min Rain = 0
KST2 130826Z 03003KT 23/23 A2995 RMK A01 T02320229  RH  098%=      5-min Rain = 0
KST2 130827Z 03003KT 23/23 A2995 RMK A01 T02320229  RH  098%=      5-min Rain = 0
KST2 130828Z 03003KT 23/23 A2995 RMK A01 T02320229  RH  098%=      5-min Rain = 0
KST2 130829Z 03003KT 23/23 A2995 RMK A01 T02320229  RH  098%=      5-min Rain = 0
KST2 130830Z 03004KT 23/23 A2995 RMK A01 T02320229  RH  098%=      5-min Rain = 0
KST2 130831Z 03004KT 23/23 A2995 RMK A01 T02320229  RH  098%=      5-min Rain = 0
KST2 130832Z 03004KT 23/23 A2995 RMK A01 T02320229  RH  098%=      5-min Rain = 0
KST2 130833Z 03005KT 23/23 A2995 RMK A01 T02320230  RH  098%=      5-min Rain = 0
KST2 130834Z 03005KT 23/23 A2995 RMK A01 T02320229  RH  098%=      5-min Rain = 0
KST2 130835Z 03005KT 23/23 A2995 RMK A01 T02320229  RH  098%=      5-min Rain = 0
KST2 130836Z 04006KT 23/23 A2994 RMK A01 T02320229  RH  098%=      5-min Rain = 0
KST2 130837Z 04005KT 23/23 A2994 RMK A01 T02320229  RH  098%=      5-min Rain = 0
KST2 130838Z 04006KT 23/23 A2994 RMK A01 T02320229  RH  098%=      5-min Rain = 0
KST2 130839Z 04006KT 23/23 A2994 RMK A01 T02330229  RH  098%=      5-min Rain = 0
KST2 130840Z 04005KT 23/23 A2994 RMK A01 T02320229  RH  098%=      5-min Rain = 0
KST2 130841Z 04004KT 23/23 A2994 RMK A01 T02330230  RH  098%=      5-min Rain = 0
KST2 130842Z 05005KT 23/23 A2994 RMK A01 T02330230  RH  098%=      5-min Rain = 0
KST2 130843Z 06004KT 23/23 A2994 RMK A01 T02330230  RH  098%=      5-min Rain = 0
KST2 130844Z 06004KT 23/23 A2994 RMK A01 T02330230  RH  098%=      5-min Rain = 0
KST2 130845Z 06003KT 23/23 A2994 RMK A01 T02330230  RH  098%=      5-min Rain = 0
KST2 130846Z 08003KT 23/23 A2995 RMK A01 T02330230  RH  098%=      5-min Rain = 0
KST2 130847Z 08003KT 23/23 A2995 RMK A01 T02340231  RH  098%=      5-min Rain = 0
KST2 130848Z 08003KT 23/23 A2995 RMK A01 T02340231  RH  098%=      5-min Rain = 0
KST2 130849Z 08003KT 23/23 A2995 RMK A01 T02340231  RH  098%=      5-min Rain = 0
KST2 130850Z 09003KT 23/23 A2995 RMK A01 T02340231  RH  098%=      5-min Rain = 0
KST2 130851Z 08003KT 23/23 A2995 RMK A01 T02340231  RH  098%=      5-min Rain = 0
KST2 130852Z 09003KT 23/23 A2995 RMK A01 T02340231  RH  098%=      5-min Rain = 0
KST2 130853Z 09002KT 23/23 A2995 RMK A01 T02340231  RH  098%=      5-min Rain = 0
KST2 130854Z 09003KT 23/23 A2995 RMK A01 T02340231  RH  098%=      5-min Rain = 0
KST2 130855Z 09002KT 23/23 A2995 RMK A01 T02340231  RH  098%=      5-min Rain = 0
KST2 130856Z 08002KT 23/23 A2995 RMK A01 T02340231  RH  098%=      5-min Rain = 0
KST2 130857Z 08002KT 24/23 A2995 RMK A01 T02350232  RH  098%=      5-min Rain = 0
KST2 130858Z 08003KT 24/23 A2995 RMK A01 T02350232  RH  098%=      5-min Rain = 0
KST2 130859Z 07002KT 24/23 A2995 RMK A01 T02350232  RH  098%=      5-min Rain = 0
KST2 130900Z 08002KT 24/23 A2995 RMK A01 T02350232  RH  098%=      5-min Rain = 0
KST2 130901Z 07002KT 24/23 A2995 RMK A01 T02350232  RH  098%=      5-min Rain = 0
KST2 130902Z 06002KT 24/23 A2995 RMK A01 T02350232  RH  098%=      5-min Rain = 0
KST2 130903Z 06002KT 24/23 A2995 RMK A01 T02350232  RH  098%=      5-min Rain = 0
KST2 130904Z 06002KT 24/23 A2995 RMK A01 T02350232  RH  098%=      5-min Rain = 0
KST2 130905Z 07003KT 24/23 A2995 RMK A01 T02350232  RH  098%=      5-min Rain = 0
KST2 130906Z 07003KT 24/23 A2995 RMK A01 T02350232  RH  098%=      5-min Rain = 0
KST2 130907Z 08003KT 24/23 A2995 RMK A01 T02350232  RH  098%=      5-min Rain = 0
KST2 130908Z 07003KT 24/23 A2995 RMK A01 T02350231  RH  098%=      5-min Rain = 0
KST2 130909Z 09004KT 23/23 A2995 RMK A01 T02340231  RH  098%=      5-min Rain = 0
KST2 130910Z 09004KT 23/23 A2995 RMK A01 T02340230  RH  098%=      5-min Rain = 0
KST2 130911Z 10003KT 24/23 A2995 RMK A01 T02350231  RH  098%=      5-min Rain = 0
KST2 130912Z 11003KT 24/23 A2995 RMK A01 T02350231  RH  097%=      5-min Rain = 0
KST2 130913Z 11003KT 24/23 A2995 RMK A01 T02350230  RH  097%=      5-min Rain = 0
KST2 130914Z 11004KT 24/23 A2995 RMK A01 T02350230  RH  097%=      5-min Rain = 0
KST2 130915Z 10003KT 24/23 A2995 RMK A01 T02350230  RH  097%=      5-min Rain = 0
KST2 130916Z 10004KT 24/23 A2995 RMK A01 T02350231  RH  097%=      5-min Rain = 0
KST2 130917Z 11003KT 24/23 A2995 RMK A01 T02360231  RH  097%=      5-min Rain = 0
KST2 130918Z 10003KT 24/23 A2995 RMK A01 T02360231  RH  097%=      5-min Rain = 0
KST2 130919Z 10003KT 24/23 A2995 RMK A01 T02360231  RH  097%=      5-min Rain = 0
KST2 130920Z 11003KT 24/23 A2995 RMK A01 T02360230  RH  097%=      5-min Rain = 0
KST2 130921Z 11003KT 24/23 A2995 RMK A01 T02360230  RH  096%=      5-min Rain = 0
KST2 130922Z 13005KT 24/23 A2995 RMK A01 T02360230  RH  096%=      5-min Rain = 0
KST2 130923Z 13004KT 24/23 A2995 RMK A01 T02360229  RH  096%=      5-min Rain = 0
KST2 130924Z 13003KT 24/23 A2995 RMK A01 T02360229  RH  096%=      5-min Rain = 0
KST2 130925Z 13003KT 24/23 A2995 RMK A01 T02360229  RH  096%=      5-min Rain = 0
KST2 130926Z 14004KT 24/23 A2995 RMK A01 T02360229  RH  096%=      5-min Rain = 0
KST2 130927Z 14004KT 24/23 A2995 RMK A01 T02360229  RH  096%=      5-min Rain = 0
KST2 130928Z 13003KT 24/23 A2995 RMK A01 T02360229  RH  096%=      5-min Rain = 0
KST2 130929Z 13003KT 24/23 A2995 RMK A01 T02360229  RH  096%=      5-min Rain = 0
KST2 130930Z 13004KT 24/23 A2995 RMK A01 T02360229  RH  096%=      5-min Rain = 0
KST2 130931Z 12004KT 24/23 A2995 RMK A01 T02370229  RH  096%=      5-min Rain = 0
KST2 130932Z 13004KT 24/23 A2995 RMK A01 T02360229  RH  096%=      5-min Rain = 0
KST2 130933Z 13003KT 24/23 A2996 RMK A01 T02360229  RH  095%=      5-min Rain = 0
KST2 130934Z 12004KT 24/23 A2996 RMK A01 T02360229  RH  095%=      5-min Rain = 0
KST2 130935Z 12003KT 24/23 A2996 RMK A01 T02360228  RH  095%=      5-min Rain = 0
KST2 130936Z 12002KT 24/23 A2996 RMK A01 T02360229  RH  095%=      5-min Rain = 0
KST2 130937Z 12003KT 24/23 A2996 RMK A01 T02370230  RH  095%=      5-min Rain = 0
KST2 130938Z 11002KT 24/23 A2996 RMK A01 T02370229  RH  095%=      5-min Rain = 0
KST2 130939Z 12002KT 24/23 A2996 RMK A01 T02370229  RH  095%=      5-min Rain = 0
KST2 130940Z 11002KT 24/23 A2996 RMK A01 T02370230  RH  096%=      5-min Rain = 0
KST2 130941Z 09002KT 24/23 A2996 RMK A01 T02370229  RH  096%=      5-min Rain = 0
KST2 130942Z 09002KT 24/23 A2996 RMK A01 T02370230  RH  096%=      5-min Rain = 0
KST2 130943Z 08001KT 24/23 A2996 RMK A01 T02370230  RH  096%=      5-min Rain = 0
KST2 130944Z 09002KT 24/23 A2996 RMK A01 T02370230  RH  096%=      5-min Rain = 0
KST2 130945Z 07002KT 24/23 A2996 RMK A01 T02370230  RH  096%=      5-min Rain = 0
KST2 130946Z 06002KT 24/23 A2995 RMK A01 T02370230  RH  096%=      5-min Rain = 0
KST2 130947Z 07003KT 24/23 A2995 RMK A01 T02370230  RH  095%=      5-min Rain = 0
KST2 130948Z 07003KT 24/23 A2995 RMK A01 T02370230  RH  095%=      5-min Rain = 0
KST2 130949Z 07002KT 24/23 A2995 RMK A01 T02370230  RH  096%=      5-min Rain = 0
KST2 130950Z 07003KT 24/23 A2996 RMK A01 T02370230  RH  095%=      5-min Rain = 0
KST2 130951Z 07002KT 24/23 A2996 RMK A01 T02370229  RH  095%=      5-min Rain = 0
KST2 130952Z 08002KT 24/23 A2996 RMK A01 T02370229  RH  095%=      5-min Rain = 0
KST2 130953Z 07002KT 24/23 A2996 RMK A01 T02370229  RH  095%=      5-min Rain = 0
KST2 130954Z 07002KT 24/23 A2996 RMK A01 T02370229  RH  095%=      5-min Rain = 0
KST2 130955Z 09002KT 24/23 A2996 RMK A01 T02370229  RH  095%=      5-min Rain = 0
KST2 130956Z 08002KT 24/23 A2995 RMK A01 T02370229  RH  095%=      5-min Rain = 0
KST2 130957Z 08002KT 24/23 A2995 RMK A01 T02370230  RH  095%=      5-min Rain = 0
KST2 130958Z 08002KT 24/23 A2995 RMK A01 T02370230  RH  096%=      5-min Rain = 0
KST2 130959Z 06002KT 24/23 A2995 RMK A01 T02380231  RH  096%=      5-min Rain = 0
KST2 131000Z 05002KT 24/23 A2995 RMK A01 T02380231  RH  096%=      5-min Rain = 0
KST2 131001Z 04002KT 24/23 A2995 RMK A01 T02380231  RH  096%=      5-min Rain = 0
KST2 131002Z 03002KT 24/23 A2995 RMK A01 T02380231  RH  096%=      5-min Rain = 0
KST2 131003Z 02002KT 24/23 A2995 RMK A01 T02380231  RH  096%=      5-min Rain = 0
KST2 131004Z 00002KT 24/23 A2995 RMK A01 T02380231  RH  096%=      5-min Rain = 0
KST2 131005Z 00002KT 24/23 A2995 RMK A01 T02380232  RH  096%=      5-min Rain = 0
KST2 131006Z 00003KT 24/23 A2995 RMK A01 T02380232  RH  096%=      5-min Rain = 0
KST2 131007Z 00003KT 24/23 A2995 RMK A01 T02380232  RH  096%=      5-min Rain = 0
KST2 131008Z 01003KT 24/23 A2995 RMK A01 T02380232  RH  096%=      5-min Rain = 0
KST2 131009Z 01003KT 24/23 A2995 RMK A01 T02380232  RH  096%=      5-min Rain = 0
KST2 131010Z 00003KT 24/23 A2995 RMK A01 T02380232  RH  097%=      5-min Rain = 0
KST2 131011Z 01002KT 24/23 A2995 RMK A01 T02370231  RH  096%=      5-min Rain = 0
KST2 131012Z 01003KT 24/23 A2995 RMK A01 T02370232  RH  097%=      5-min Rain = 0
KST2 131013Z 01003KT 24/23 A2995 RMK A01 T02370232  RH  097%=      5-min Rain = 0
KST2 131014Z 01002KT 24/23 A2995 RMK A01 T02370232  RH  097%=      5-min Rain = 0
KST2 131015Z 01002KT 24/23 A2995 RMK A01 T02370232  RH  097%=      5-min Rain = 0
KST2 131016Z 36002KT 24/23 A2995 RMK A01 T02380233  RH  097%=      5-min Rain = 0
KST2 131017Z 36003KT 24/23 A2995 RMK A01 T02380233  RH  097%=      5-min Rain = 0
KST2 131018Z 00003KT 24/23 A2995 RMK A01 T02370232  RH  097%=      5-min Rain = 0
KST2 131019Z 00003KT 24/23 A2995 RMK A01 T02370232  RH  097%=      5-min Rain = 0
KST2 131020Z 00003KT 24/23 A2995 RMK A01 T02370232  RH  097%=      5-min Rain = 0
KST2 131021Z 01003KT 24/23 A2995 RMK A01 T02370232  RH  097%=      5-min Rain = 0
KST2 131022Z 01003KT 24/23 A2995 RMK A01 T02370232  RH  097%=      5-min Rain = 0
KST2 131023Z 01002KT 24/23 A2995 RMK A01 T02370232  RH  097%=      5-min Rain = 0
KST2 131024Z 01002KT 24/23 A2995 RMK A01 T02370232  RH  097%=      5-min Rain = 0
KST2 131025Z 01002KT 24/23 A2995 RMK A01 T02360232  RH  097%=      5-min Rain = 0
KST2 131026Z 01002KT 24/23 A2995 RMK A01 T02360231  RH  097%=      5-min Rain = 0
KST2 131027Z 00002KT 24/23 A2995 RMK A01 T02360232  RH  097%=      5-min Rain = 0
KST2 131028Z 00002KT 24/23 A2995 RMK A01 T02360231  RH  097%=      5-min Rain = 0
KST2 131029Z 35003KT 24/23 A2995 RMK A01 T02360231  RH  097%=      5-min Rain = 0
KST2 131030Z 35003KT 24/23 A2995 RMK A01 T02360231  RH  097%=      5-min Rain = 0
KST2 131031Z 35003KT 24/23 A2994 RMK A01 T02360231  RH  097%=      5-min Rain = 0
KST2 131032Z 35003KT 24/23 A2994 RMK A01 T02360232  RH  097%=      5-min Rain = 0
KST2 131033Z 35004KT 24/23 A2994 RMK A01 T02360232  RH  097%=      5-min Rain = 0
KST2 131034Z 35004KT 24/23 A2994 RMK A01 T02360232  RH  097%=      5-min Rain = 0
KST2 131035Z 35004KT 24/23 A2994 RMK A01 T02360232  RH  097%=      5-min Rain = 0
KST2 131036Z 35004KT 24/23 A2994 RMK A01 T02360232  RH  097%=      5-min Rain = 0
KST2 131037Z 36004KT 24/23 A2994 RMK A01 T02360232  RH  097%=      5-min Rain = 0
KST2 131038Z 00003KT 24/23 A2994 RMK A01 T02360232  RH  097%=      5-min Rain = 0
KST2 131039Z 00002KT 24/23 A2994 RMK A01 T02360232  RH  097%=      5-min Rain = 0
KST2 131040Z 01002KT 24/23 A2994 RMK A01 T02360232  RH  097%=      5-min Rain = 0
KST2 131041Z 01003KT 24/23 A2994 RMK A01 T02360232  RH  098%=      5-min Rain = 0
KST2 131042Z 01003KT 24/23 A2994 RMK A01 T02360232  RH  098%=      5-min Rain = 0
KST2 131043Z 01003KT 24/23 A2994 RMK A01 T02360232  RH  098%=      5-min Rain = 0
KST2 131044Z 01003KT 24/23 A2994 RMK A01 T02360231  RH  097%=      5-min Rain = 0
KST2 131045Z 01004KT 24/23 A2994 RMK A01 T02360232  RH  098%=      5-min Rain = 0
KST2 131046Z 01004KT 24/23 A2994 RMK A01 T02360231  RH  098%=      5-min Rain = 0
KST2 131047Z 00003KT 24/23 A2994 RMK A01 T02360232  RH  098%=      5-min Rain = 0
KST2 131048Z 36002KT 24/23 A2994 RMK A01 T02360232  RH  098%=      5-min Rain = 0
KST2 131049Z 01002KT 24/23 A2994 RMK A01 T02360232  RH  098%=      5-min Rain = 0
KST2 131050Z 01002KT 24/23 A2994 RMK A01 T02360232  RH  098%=      5-min Rain = 0
KST2 131051Z 01002KT 24/23 A2994 RMK A01 T02360231  RH  097%=      5-min Rain = 0
KST2 131052Z 36002KT 24/23 A2994 RMK A01 T02360232  RH  097%=      5-min Rain = 0
KST2 131053Z 00002KT 24/23 A2994 RMK A01 T02350231  RH  097%=      5-min Rain = 0
KST2 131054Z 36002KT 24/23 A2994 RMK A01 T02350231  RH  097%=      5-min Rain = 0
KST2 131055Z 35001KT 24/23 A2994 RMK A01 T02350231  RH  097%=      5-min Rain = 0
KST2 131056Z 36002KT 24/23 A2994 RMK A01 T02350231  RH  097%=      5-min Rain = 0
KST2 131057Z 01003KT 24/23 A2994 RMK A01 T02350231  RH  097%=      5-min Rain = 0
KST2 131058Z 01003KT 24/23 A2994 RMK A01 T02360231  RH  097%=      5-min Rain = 0
KST2 131059Z 01003KT 24/23 A2993 RMK A01 T02360231  RH  097%=      5-min Rain = 0
KST2 131100Z 01004KT 24/23 A2993 RMK A01 T02360231  RH  097%=      5-min Rain = 0
KST2 131101Z 01003KT 24/23 A2993 RMK A01 T02360231  RH  097%=      5-min Rain = 0
KST2 131102Z 01003KT 24/23 A2994 RMK A01 T02360231  RH  097%=      5-min Rain = 0
KST2 131103Z 01003KT 24/23 A2994 RMK A01 T02360231  RH  097%=      5-min Rain = 0
KST2 131104Z 36003KT 24/23 A2994 RMK A01 T02360231  RH  097%=      5-min Rain = 0
KST2 131105Z 00003KT 24/23 A2994 RMK A01 T02360232  RH  097%=      5-min Rain = 0
KST2 131106Z 00003KT 24/23 A2994 RMK A01 T02360231  RH  097%=      5-min Rain = 0
KST2 131107Z 01002KT 24/23 A2993 RMK A01 T02360232  RH  097%=      5-min Rain = 0
KST2 131108Z 02003KT 24/23 A2993 RMK A01 T02360232  RH  097%=      5-min Rain = 0
KST2 131109Z 04003KT 24/23 A2993 RMK A01 T02360231  RH  097%=      5-min Rain = 0
KST2 131110Z 03004KT 24/23 A2993 RMK A01 T02360231  RH  097%=      5-min Rain = 0
KST2 131111Z 03003KT 24/23 A2993 RMK A01 T02360231  RH  097%=      5-min Rain = 0
KST2 131112Z 02003KT 24/23 A2994 RMK A01 T02360232  RH  097%=      5-min Rain = 0
KST2 131113Z 02003KT 24/23 A2994 RMK A01 T02360232  RH  097%=      5-min Rain = 0
KST2 131114Z 02003KT 24/23 A2994 RMK A01 T02370232  RH  097%=      5-min Rain = 0
KST2 131115Z 02003KT 24/23 A2994 RMK A01 T02370232  RH  097%=      5-min Rain = 0
KST2 131116Z 02002KT 24/23 A2994 RMK A01 T02360232  RH  097%=      5-min Rain = 0
KST2 131117Z 04002KT 24/23 A2994 RMK A01 T02360231  RH  097%=      5-min Rain = 0
KST2 131118Z 05001KT 24/23 A2994 RMK A01 T02360231  RH  097%=      5-min Rain = 0
KST2 131119Z 06001KT 24/23 A2994 RMK A01 T02360231  RH  097%=      5-min Rain = 0
KST2 131120Z 07001KT 24/23 A2994 RMK A01 T02360231  RH  097%=      5-min Rain = 0
KST2 131121Z 09002KT 24/23 A2993 RMK A01 T02360231  RH  097%=      5-min Rain = 0
KST2 131122Z 08002KT 24/23 A2993 RMK A01 T02360231  RH  097%=      5-min Rain = 0
KST2 131123Z 08002KT 24/23 A2993 RMK A01 T02360231  RH  097%=      5-min Rain = 0
KST2 131124Z 07002KT 24/23 A2993 RMK A01 T02360231  RH  097%=      5-min Rain = 0
KST2 131125Z 07002KT 24/23 A2993 RMK A01 T02360231  RH  097%=      5-min Rain = 0
KST2 131126Z 07002KT 24/23 A2993 RMK A01 T02370231  RH  097%=      5-min Rain = 0
KST2 131127Z 07002KT 24/23 A2993 RMK A01 T02370231  RH  097%=      5-min Rain = 0
KST2 131128Z 05001KT 24/23 A2994 RMK A01 T02370232  RH  097%=      5-min Rain = 0
KST2 131129Z 05002KT 24/23 A2994 RMK A01 T02370232  RH  097%=      5-min Rain = 0
KST2 131130Z 04001KT 24/23 A2994 RMK A01 T02370232  RH  097%=      5-min Rain = 0
KST2 131131Z 04000KT 24/23 A2994 RMK A01 T02370232  RH  097%=      5-min Rain = 0
KST2 131132Z 00000KT 24/23 A2994 RMK A01 T02380232  RH  097%=      5-min Rain = 0
KST2 131133Z 00000KT 24/23 A2994 RMK A01 T02370232  RH  097%=      5-min Rain = 0
KST2 131134Z 04000KT 24/23 A2994 RMK A01 T02370232  RH  097%=      5-min Rain = 0
KST2 131135Z 03001KT 24/23 A2994 RMK A01 T02370232  RH  097%=      5-min Rain = 0
KST2 131136Z 02001KT 24/23 A2994 RMK A01 T02370232  RH  097%=      5-min Rain = 0
KST2 131137Z 02001KT 24/23 A2994 RMK A01 T02370231  RH  097%=      5-min Rain = 0
KST2 131138Z 00001KT 24/23 A2994 RMK A01 T02370231  RH  096%=      5-min Rain = 0
KST2 131139Z 00001KT 24/23 A2994 RMK A01 T02370231  RH  097%=      5-min Rain = 0
KST2 131140Z 00001KT 24/23 A2994 RMK A01 T02370231  RH  097%=      5-min Rain = 0
KST2 131141Z 00000KT 24/23 A2995 RMK A01 T02370231  RH  097%=      5-min Rain = 0
KST2 131142Z 00000KT 24/23 A2995 RMK A01 T02370231  RH  096%=      5-min Rain = 0
KST2 131143Z 00000KT 24/23 A2995 RMK A01 T02370231  RH  096%=      5-min Rain = 0
KST2 131144Z 00000KT 24/23 A2995 RMK A01 T02370231  RH  096%=      5-min Rain = 0
KST2 131145Z 00000KT 24/23 A2995 RMK A01 T02370231  RH  096%=      5-min Rain = 0
KST2 131146Z 00000KT 24/23 A2995 RMK A01 T02370231  RH  096%=      5-min Rain = 0
KST2 131147Z 19000KT 24/23 A2995 RMK A01 T02370231  RH  096%=      5-min Rain = 0
KST2 131148Z 21002KT 24/23 A2995 RMK A01 T02370231  RH  096%=      5-min Rain = 0
KST2 131149Z 21004KT 24/23 A2995 RMK A01 T02380232  RH  097%=      5-min Rain = 0
KST2 131150Z 21005KT 24/23 A2995 RMK A01 T02380232  RH  096%=      5-min Rain = 0
KST2 131151Z 20005KT 24/23 A2995 RMK A01 T02380232  RH  096%=      5-min Rain = 0
KST2 131152Z 20005KT 24/23 A2995 RMK A01 T02380232  RH  096%=      5-min Rain = 0
KST2 131153Z 20005KT 24/23 A2995 RMK A01 T02380232  RH  096%=      5-min Rain = 0
KST2 131154Z 20005KT 24/23 A2995 RMK A01 T02380232  RH  096%=      5-min Rain = 0
KST2 131155Z 21005KT 24/23 A2995 RMK A01 T02380232  RH  096%=      5-min Rain = 0
KST2 131156Z 21005KT 24/23 A2995 RMK A01 T02370231  RH  096%=      5-min Rain = 0
KST2 131157Z 21005KT 24/23 A2996 RMK A01 T02370231  RH  096%=      5-min Rain = 0
KST2 131158Z 20005KT 24/23 A2996 RMK A01 T02380232  RH  096%=      5-min Rain = 0
KST2 131159Z 20006KT 24/23 A2995 RMK A01 T02380232  RH  096%=      5-min Rain = 0
KST2 131200Z 19006KT 24/23 A2995 RMK A01 T02370231  RH  096%=      5-min Rain = 0
KST2 131201Z 18006KT 24/23 A2995 RMK A01 T02370231  RH  096%=      5-min Rain = 0
KST2 131202Z 17005KT 24/23 A2995 RMK A01 T02370230  RH  096%=      5-min Rain = 0
KST2 131203Z 17004KT 24/23 A2995 RMK A01 T02370229  RH  096%=      5-min Rain = 0
KST2 131204Z 18004KT 24/23 A2995 RMK A01 T02360229  RH  096%=      5-min Rain = 0
KST2 131205Z 19003KT 24/23 A2995 RMK A01 T02370229  RH  096%=      5-min Rain = 0
KST2 131206Z 19002KT 24/23 A2995 RMK A01 T02360229  RH  096%=      5-min Rain = 0
KST2 131207Z 20003KT 24/23 A2995 RMK A01 T02360229  RH  096%=      5-min Rain = 0
KST2 131208Z 20003KT 24/23 A2995 RMK A01 T02360229  RH  096%=      5-min Rain = 0
KST2 131209Z 20003KT 24/23 A2996 RMK A01 T02370230  RH  096%=      5-min Rain = 0
KST2 131210Z 20004KT 24/23 A2996 RMK A01 T02370230  RH  096%=      5-min Rain = 0
KST2 131211Z 18004KT 24/23 A2996 RMK A01 T02370230  RH  096%=      5-min Rain = 0
KST2 131212Z 18003KT 24/23 A2996 RMK A01 T02370230  RH  095%=      5-min Rain = 0
KST2 131213Z 18003KT 24/23 A2996 RMK A01 T02370230  RH  096%=      5-min Rain = 0
KST2 131214Z 18003KT 24/23 A2996 RMK A01 T02370229  RH  095%=      5-min Rain = 0
KST2 131215Z 17003KT 24/23 A2996 RMK A01 T02370229  RH  095%=      5-min Rain = 0
KST2 131216Z 17003KT 24/23 A2996 RMK A01 T02370229  RH  096%=      5-min Rain = 0
KST2 131217Z 17003KT 24/23 A2996 RMK A01 T02370230  RH  096%=      5-min Rain = 0
KST2 131218Z 16002KT 24/23 A2996 RMK A01 T02370230  RH  095%=      5-min Rain = 0
KST2 131219Z 14002KT 24/23 A2995 RMK A01 T02370229  RH  095%=      5-min Rain = 0
KST2 131220Z 14002KT 24/23 A2995 RMK A01 T02370230  RH  096%=      5-min Rain = 0
KST2 131221Z 12002KT 24/23 A2995 RMK A01 T02370229  RH  095%=      5-min Rain = 0
KST2 131222Z 13002KT 24/23 A2996 RMK A01 T02370229  RH  095%=      5-min Rain = 0
KST2 131223Z 13002KT 24/23 A2996 RMK A01 T02370229  RH  095%=      5-min Rain = 0
KST2 131224Z 13002KT 24/23 A2996 RMK A01 T02360229  RH  095%=      5-min Rain = 0
KST2 131225Z 14002KT 24/23 A2996 RMK A01 T02360229  RH  095%=      5-min Rain = 0
KST2 131226Z 15001KT 24/23 A2996 RMK A01 T02360228  RH  095%=      5-min Rain = 0
KST2 131227Z 16002KT 24/23 A2996 RMK A01 T02370229  RH  095%=      5-min Rain = 0
KST2 131228Z 17002KT 24/23 A2996 RMK A01 T02370229  RH  095%=      5-min Rain = 0
KST2 131229Z 17002KT 24/23 A2996 RMK A01 T02360228  RH  095%=      5-min Rain = 0
KST2 131230Z 17002KT 24/23 A2996 RMK A01 T02370229  RH  095%=      5-min Rain = 0
KST2 131231Z 15001KT 24/23 A2996 RMK A01 T02370229  RH  095%=      5-min Rain = 0
KST2 131232Z 13001KT 24/23 A2996 RMK A01 T02360229  RH  095%=      5-min Rain = 0
KST2 131233Z 14002KT 24/23 A2996 RMK A01 T02370229  RH  095%=      5-min Rain = 0
KST2 131234Z 14002KT 24/23 A2996 RMK A01 T02370229  RH  095%=      5-min Rain = 0
KST2 131235Z 14002KT 24/23 A2996 RMK A01 T02370229  RH  095%=      5-min Rain = 0
KST2 131236Z 15003KT 24/23 A2996 RMK A01 T02370230  RH  096%=      5-min Rain = 0
KST2 131237Z 15003KT 24/23 A2996 RMK A01 T02370229  RH  096%=      5-min Rain = 0
KST2 131238Z 15003KT 24/23 A2996 RMK A01 T02370230  RH  096%=      5-min Rain = 0
KST2 131239Z 15003KT 24/23 A2996 RMK A01 T02380230  RH  096%=      5-min Rain = 0
KST2 131240Z 16002KT 24/23 A2996 RMK A01 T02380231  RH  096%=      5-min Rain = 0
KST2 131241Z 17003KT 24/23 A2996 RMK A01 T02370230  RH  096%=      5-min Rain = 0
KST2 131242Z 17002KT 24/23 A2996 RMK A01 T02380231  RH  096%=      5-min Rain = 0
KST2 131243Z 17002KT 24/23 A2996 RMK A01 T02370230  RH  096%=      5-min Rain = 0
KST2 131244Z 16002KT 24/23 A2996 RMK A01 T02370230  RH  096%=      5-min Rain = 0
KST2 131245Z 17002KT 24/23 A2996 RMK A01 T02370230  RH  096%=      5-min Rain = 0
KST2 131246Z 16002KT 24/23 A2996 RMK A01 T02370230  RH  096%=      5-min Rain = 0
KST2 131247Z 15002KT 24/23 A2996 RMK A01 T02370230  RH  096%=      5-min Rain = 0
KST2 131248Z 15002KT 24/23 A2996 RMK A01 T02370230  RH  096%=      5-min Rain = 0
KST2 131249Z 15002KT 24/23 A2996 RMK A01 T02370230  RH  095%=      5-min Rain = 0
KST2 131250Z 14001KT 24/23 A2996 RMK A01 T02370230  RH  095%=      5-min Rain = 0
KST2 131251Z 12001KT 24/23 A2996 RMK A01 T02380230  RH  095%=      5-min Rain = 0
KST2 131252Z 13001KT 24/23 A2996 RMK A01 T02380230  RH  095%=      5-min Rain = 0
KST2 131253Z 12001KT 24/23 A2996 RMK A01 T02370229  RH  095%=      5-min Rain = 0
KST2 131254Z 12002KT 24/23 A2996 RMK A01 T02370229  RH  095%=      5-min Rain = 0
KST2 131255Z 12002KT 24/23 A2996 RMK A01 T02380230  RH  095%=      5-min Rain = 0
KST2 131256Z 12002KT 24/23 A2996 RMK A01 T02380230  RH  095%=      5-min Rain = 0
KST2 131257Z 11001KT 24/23 A2996 RMK A01 T02380230  RH  095%=      5-min Rain = 0
KST2 131258Z 10002KT 24/23 A2996 RMK A01 T02380230  RH  095%=      5-min Rain = 0
KST2 131259Z 11001KT 24/23 A2996 RMK A01 T02380230  RH  095%=      5-min Rain = 0
KST2 131300Z 12001KT 24/23 A2996 RMK A01 T02380230  RH  095%=      5-min Rain = 0
KST2 131301Z 12000KT 24/23 A2996 RMK A01 T02380230  RH  095%=      5-min Rain = 0
KST2 131302Z 09001KT 24/23 A2996 RMK A01 T02380230  RH  095%=      5-min Rain = 0
KST2 131303Z 09001KT 24/23 A2996 RMK A01 T02390230  RH  095%=      5-min Rain = 0
KST2 131304Z 09001KT 24/23 A2996 RMK A01 T02390230  RH  095%=      5-min Rain = 0
KST2 131305Z 10001KT 24/23 A2996 RMK A01 T02390230  RH  095%=      5-min Rain = 0
KST2 131306Z 08002KT 24/23 A2996 RMK A01 T02390231  RH  095%=      5-min Rain = 0
KST2 131307Z 08002KT 24/23 A2996 RMK A01 T02400231  RH  095%=      5-min Rain = 0
KST2 131308Z 07002KT 24/23 A2996 RMK A01 T02400231  RH  095%=      5-min Rain = 0
KST2 131309Z 06002KT 24/23 A2996 RMK A01 T02400231  RH  095%=      5-min Rain = 0
KST2 131310Z 07002KT 24/23 A2996 RMK A01 T02400231  RH  095%=      5-min Rain = 0
KST2 131311Z 07002KT 24/23 A2996 RMK A01 T02400231  RH  095%=      5-min Rain = 0
KST2 131312Z 08002KT 24/23 A2996 RMK A01 T02400231  RH  094%=      5-min Rain = 0
KST2 131313Z 09002KT 24/23 A2996 RMK A01 T02400230  RH  094%=      5-min Rain = 0
KST2 131314Z 09002KT 24/23 A2996 RMK A01 T02400231  RH  095%=      5-min Rain = 0
KST2 131315Z 09001KT 24/23 A2996 RMK A01 T02390229  RH  094%=      5-min Rain = 0
KST2 131316Z 10002KT 24/23 A2996 RMK A01 T02390229  RH  094%=      5-min Rain = 0
KST2 131317Z 09002KT 24/23 A2996 RMK A01 T02400230  RH  094%=      5-min Rain = 0
KST2 131318Z 09002KT 24/23 A2996 RMK A01 T02410231  RH  094%=      5-min Rain = 0
KST2 131319Z 07002KT 24/23 A2996 RMK A01 T02420231  RH  093%=      5-min Rain = 0
KST2 131320Z 06002KT 24/23 A2996 RMK A01 T02420230  RH  093%=      5-min Rain = 0
KST2 131321Z 05002KT 24/23 A2996 RMK A01 T02420230  RH  093%=      5-min Rain = 0
KST2 131322Z 05002KT 24/23 A2996 RMK A01 T02420230  RH  093%=      5-min Rain = 0
KST2 131323Z 04002KT 24/23 A2996 RMK A01 T02430230  RH  092%=      5-min Rain = 0
KST2 131324Z 04003KT 24/23 A2996 RMK A01 T02430232  RH  093%=      5-min Rain = 0
KST2 131325Z 04003KT 24/23 A2996 RMK A01 T02440232  RH  093%=      5-min Rain = 0
KST2 131326Z 04003KT 24/23 A2996 RMK A01 T02440231  RH  092%=      5-min Rain = 0
KST2 131327Z 04003KT 24/23 A2996 RMK A01 T02440231  RH  092%=      5-min Rain = 0
KST2 131328Z 06002KT 25/23 A2996 RMK A01 T02450229  RH  091%=      5-min Rain = 0
KST2 131329Z 06003KT 25/23 A2996 RMK A01 T02460229  RH  091%=      5-min Rain = 0
KST2 131330Z 03003KT 25/23 A2996 RMK A01 T02470232  RH  092%=      5-min Rain = 0
KST2 131331Z 03002KT 25/23 A2996 RMK A01 T02480234  RH  092%=      5-min Rain = 0
KST2 131332Z 06002KT 25/23 A2996 RMK A01 T02490234  RH  091%=      5-min Rain = 0
KST2 131333Z 02003KT 25/23 A2996 RMK A01 T02490234  RH  091%=      5-min Rain = 0
KST2 131334Z 03003KT 25/23 A2996 RMK A01 T02500233  RH  090%=      5-min Rain = 0
KST2 131335Z 04003KT 25/23 A2996 RMK A01 T02500233  RH  090%=      5-min Rain = 0
KST2 131336Z 04003KT 25/23 A2996 RMK A01 T02500233  RH  090%=      5-min Rain = 0
KST2 131337Z 03004KT 25/23 A2996 RMK A01 T02500234  RH  091%=      5-min Rain = 0
KST2 131338Z 02004KT 25/23 A2996 RMK A01 T02500232  RH  090%=      5-min Rain = 0
KST2 131339Z 03004KT 25/23 A2996 RMK A01 T02480232  RH  091%=      5-min Rain = 0
KST2 131340Z 02004KT 25/23 A2996 RMK A01 T02480234  RH  092%=      5-min Rain = 0
KST2 131341Z 02005KT 25/23 A2996 RMK A01 T02480233  RH  092%=      5-min Rain = 0
KST2 131342Z 03005KT 25/23 A2996 RMK A01 T02470234  RH  092%=      5-min Rain = 0
KST2 131343Z 03005KT 25/23 A2996 RMK A01 T02470233  RH  092%=      5-min Rain = 0
KST2 131344Z 03005KT 25/23 A2996 RMK A01 T02470233  RH  092%=      5-min Rain = 0
KST2 131345Z 03005KT 25/23 A2996 RMK A01 T02470234  RH  092%=      5-min Rain = 0
KST2 131346Z 04005KT 25/23 A2996 RMK A01 T02470232  RH  091%=      5-min Rain = 0
KST2 131347Z 03005KT 25/23 A2996 RMK A01 T02460231  RH  091%=      5-min Rain = 0
KST2 131348Z 03005KT 25/23 A2996 RMK A01 T02460232  RH  092%=      5-min Rain = 0
KST2 131349Z 03005KT 25/23 A2996 RMK A01 T02460233  RH  092%=      5-min Rain = 0
KST2 131350Z 03005KT 25/23 A2996 RMK A01 T02470233  RH  092%=      5-min Rain = 0
KST2 131351Z 03005KT 25/23 A2997 RMK A01 T02470233  RH  092%=      5-min Rain = 0
KST2 131352Z 02005KT 25/23 A2997 RMK A01 T02470232  RH  092%=      5-min Rain = 0
KST2 131353Z 03004KT 25/23 A2997 RMK A01 T02470234  RH  092%=      5-min Rain = 0
KST2 131354Z 03004KT 25/23 A2997 RMK A01 T02470233  RH  092%=      5-min Rain = 0
KST2 131355Z 03005KT 25/23 A2997 RMK A01 T02470232  RH  091%=      5-min Rain = 0
KST2 131356Z 03005KT 25/23 A2997 RMK A01 T02470233  RH  092%=      5-min Rain = 0
KST2 131357Z 02005KT 25/24 A2997 RMK A01 T02470235  RH  093%=      5-min Rain = 0
KST2 131358Z 02005KT 25/23 A2997 RMK A01 T02470233  RH  092%=      5-min Rain = 0
KST2 131359Z 02006KT 25/23 A2997 RMK A01 T02470233  RH  092%=      5-min Rain = 0
KST2 131400Z 02005KT 25/23 A2997 RMK A01 T02470233  RH  092%=      5-min Rain = 0
KST2 131401Z 01005KT 25/23 A2997 RMK A01 T02460232  RH  092%=      5-min Rain = 0
KST2 131402Z 01004KT 25/23 A2997 RMK A01 T02460232  RH  092%=      5-min Rain = 0
KST2 131403Z 36005KT 25/23 A2997 RMK A01 T02460232  RH  092%=      5-min Rain = 0
KST2 131404Z 00006KT 25/23 A2997 RMK A01 T02460232  RH  092%=      5-min Rain = 0
KST2 131405Z 01005KT 25/23 A2997 RMK A01 T02460232  RH  092%=      5-min Rain = 0
KST2 131406Z 01006KT 25/23 A2997 RMK A01 T02460233  RH  092%=      5-min Rain = 0
KST2 131407Z 00005KT 25/23 A2997 RMK A01 T02460233  RH  092%=      5-min Rain = 0
KST2 131408Z 00005KT 25/23 A2997 RMK A01 T02460233  RH  092%=      5-min Rain = 0
KST2 131409Z 01005KT 25/23 A2997 RMK A01 T02460233  RH  092%=      5-min Rain = 0
KST2 131410Z 02005KT 25/23 A2997 RMK A01 T02470233  RH  092%=      5-min Rain = 0
KST2 131411Z 01006KT 25/23 A2997 RMK A01 T02470233  RH  092%=      5-min Rain = 0
KST2 131412Z 01005KT 25/23 A2997 RMK A01 T02480233  RH  091%=      5-min Rain = 0
KST2 131413Z 02005KT 25/23 A2997 RMK A01 T02480232  RH  091%=      5-min Rain = 0
KST2 131414Z 01004KT 25/23 A2997 RMK A01 T02480232  RH  091%=      5-min Rain = 0
KST2 131415Z 01003KT 25/23 A2997 RMK A01 T02490232  RH  090%=      5-min Rain = 0
KST2 131416Z 01004KT 25/23 A2997 RMK A01 T02490232  RH  090%=      5-min Rain = 0
KST2 131417Z 02004KT 25/23 A2997 RMK A01 T02500231  RH  090%=      5-min Rain = 0
KST2 131418Z 04004KT 25/23 A2997 RMK A01 T02490231  RH  090%=      5-min Rain = 0
KST2 131419Z 03004KT 25/23 A2997 RMK A01 T02490230  RH  089%=      5-min Rain = 0
KST2 131420Z 04003KT 25/23 A2997 RMK A01 T02500230  RH  089%=      5-min Rain = 0
KST2 131421Z 04003KT 25/23 A2997 RMK A01 T02500232  RH  090%=      5-min Rain = 0
KST2 131422Z 03003KT 25/23 A2997 RMK A01 T02500230  RH  088%=      5-min Rain = 0
KST2 131423Z 01003KT 25/23 A2997 RMK A01 T02500229  RH  088%=      5-min Rain = 0
KST2 131424Z 04003KT 25/23 A2997 RMK A01 T02500231  RH  089%=      5-min Rain = 0
KST2 131425Z 05003KT 25/23 A2997 RMK A01 T02510231  RH  089%=      5-min Rain = 0
KST2 131426Z 02003KT 25/23 A2997 RMK A01 T02510229  RH  088%=      5-min Rain = 0
KST2 131427Z 05003KT 25/23 A2997 RMK A01 T02520230  RH  088%=      5-min Rain = 0
KST2 131428Z 04002KT 25/23 A2997 RMK A01 T02530233  RH  089%=      5-min Rain = 0
KST2 131429Z 02003KT 25/23 A2997 RMK A01 T02530231  RH  087%=      5-min Rain = 0
KST2 131430Z 02003KT 25/23 A2998 RMK A01 T02540231  RH  087%=      5-min Rain = 0
KST2 131431Z 03002KT 25/23 A2998 RMK A01 T02540229  RH  086%=      5-min Rain = 0
KST2 131432Z 04003KT 25/23 A2998 RMK A01 T02530231  RH  087%=      5-min Rain = 0
KST2 131433Z 03003KT 25/23 A2998 RMK A01 T02530233  RH  089%=      5-min Rain = 0
KST2 131434Z 04002KT 25/23 A2998 RMK A01 T02530234  RH  090%=      5-min Rain = 0
KST2 131435Z 03003KT 25/23 A2998 RMK A01 T02530233  RH  088%=      5-min Rain = 0
KST2 131441Z 03003KT 25/23 A2998 RMK A01 T02500231  RH  089%=      5-min Rain = 0
KST2 131442Z 02003KT 25/23 A2998 RMK A01 T02490230  RH  089%=      5-min Rain = 0
KST2 131443Z 01002KT 25/23 A2998 RMK A01 T02490230  RH  089%=      5-min Rain = 0
KST2 131444Z 01002KT 25/23 A2998 RMK A01 T02490229  RH  089%=      5-min Rain = 0
KST2 131445Z 04003KT 25/23 A2998 RMK A01 T02490231  RH  090%=      5-min Rain = 0
KST2 131446Z 03003KT 25/23 A2998 RMK A01 T02490230  RH  089%=      5-min Rain = 0
KST2 131447Z 03003KT 25/23 A2998 RMK A01 T02480230  RH  090%=      5-min Rain = 0.01
KST2 131448Z 04004KT 25/23 A2998 RMK A01 T02490233  RH  091%=      5-min Rain = 0
KST2 131449Z 04003KT 25/23 A2998 RMK A01 T02490233  RH  091%=      5-min Rain = 0
KST2 131450Z 05003KT 25/23 A2998 RMK A01 T02480231  RH  090%=      5-min Rain = 0
KST2 131451Z 05003KT 25/23 A2998 RMK A01 T02480231  RH  090%=      5-min Rain = 0
KST2 131452Z 07003KT 25/23 A2998 RMK A01 T02480232  RH  091%=      5-min Rain = 0
KST2 131453Z 08004KT 25/23 A2998 RMK A01 T02480233  RH  091%=      5-min Rain = 0
KST2 131454Z 08004KT 25/23 A2997 RMK A01 T02480232  RH  091%=      5-min Rain = 0.01
KST2 131455Z 08005KT 25/24 A2997 RMK A01 T02490235  RH  092%=      5-min Rain = 0
KST2 131456Z 08005KT 25/23 A2997 RMK A01 T02490234  RH  091%=      5-min Rain = 0
KST2 131457Z 08005KT 25/23 A2997 RMK A01 T02480231  RH  090%=      5-min Rain = 0
KST2 131458Z 08006KT 25/23 A2997 RMK A01 T02480233  RH  091%=      5-min Rain = 0
KST2 131459Z 08006KT 25/23 A2997 RMK A01 T02480234  RH  092%=      5-min Rain = 0
KST2 131500Z 08006KT 25/24 A2997 RMK A01 T02480235  RH  092%=      5-min Rain = 0
KST2 131501Z 08005KT 25/23 A2997 RMK A01 T02480234  RH  092%=      5-min Rain = 0
KST2 131502Z 07004KT 25/23 A2997 RMK A01 T02480232  RH  091%=      5-min Rain = 0
KST2 131503Z 07004KT 25/23 A2997 RMK A01 T02470232  RH  091%=      5-min Rain = 0
KST2 131504Z 05004KT 25/23 A2997 RMK A01 T02470232  RH  091%=      5-min Rain = 0
KST2 131505Z 04003KT 25/23 A2998 RMK A01 T02470232  RH  091%=      5-min Rain = 0
KST2 131506Z 03004KT 25/23 A2998 RMK A01 T02470234  RH  092%=      5-min Rain = 0.01
KST2 131507Z 04004KT 25/23 A2998 RMK A01 T02470233  RH  092%=      5-min Rain = 0
KST2 131508Z 05003KT 25/23 A2998 RMK A01 T02470233  RH  092%=      5-min Rain = 0
KST2 131509Z 05004KT 25/23 A2998 RMK A01 T02470234  RH  092%=      5-min Rain = 0
KST2 131510Z 05004KT 25/23 A2998 RMK A01 T02470232  RH  091%=      5-min Rain = 0
KST2 131511Z 04004KT 25/23 A2998 RMK A01 T02470233  RH  092%=      5-min Rain = 0
KST2 131512Z 06004KT 25/23 A2998 RMK A01 T02470234  RH  092%=      5-min Rain = 0
KST2 131513Z 05005KT 25/23 A2998 RMK A01 T02480234  RH  092%=      5-min Rain = 0
KST2 131514Z 05004KT 25/23 A2998 RMK A01 T02480233  RH  092%=      5-min Rain = 0
KST2 131515Z 06004KT 25/23 A2998 RMK A01 T02470234  RH  092%=      5-min Rain = 0
KST2 131516Z 07005KT 25/24 A2998 RMK A01 T02480235  RH  093%=      5-min Rain = 0
KST2 131517Z 07005KT 25/24 A2998 RMK A01 T02480235  RH  092%=      5-min Rain = 0
KST2 131518Z 07005KT 25/24 A2998 RMK A01 T02480235  RH  092%=      5-min Rain = 0
KST2 131519Z 08005KT 25/23 A2998 RMK A01 T02480234  RH  092%=      5-min Rain = 0
KST2 131520Z 08005KT 25/24 A2998 RMK A01 T02490235  RH  092%=      5-min Rain = 0
KST2 131521Z 08005KT 25/24 A2998 RMK A01 T02480235  RH  092%=      5-min Rain = 0
KST2 131522Z 09005KT 25/24 A2998 RMK A01 T02490236  RH  092%=      5-min Rain = 0
KST2 131523Z 08005KT 25/23 A2998 RMK A01 T02490234  RH  092%=      5-min Rain = 0
KST2 131524Z 08005KT 25/23 A2998 RMK A01 T02480233  RH  091%=      5-min Rain = 0
KST2 131525Z 08005KT 25/24 A2998 RMK A01 T02480235  RH  092%=      5-min Rain = 0
KST2 131526Z 08006KT 25/23 A2998 RMK A01 T02480234  RH  092%=      5-min Rain = 0
KST2 131527Z 09005KT 25/23 A2998 RMK A01 T02490233  RH  091%=      5-min Rain = 0
KST2 131528Z 11004KT 25/24 A2998 RMK A01 T02490235  RH  092%=      5-min Rain = 0
KST2 131529Z 11004KT 25/24 A2998 RMK A01 T02490236  RH  092%=      5-min Rain = 0
KST2 131530Z 10005KT 25/24 A2998 RMK A01 T02490236  RH  092%=      5-min Rain = 0
KST2 131531Z 11005KT 25/24 A2998 RMK A01 T02490235  RH  092%=      5-min Rain = 0
KST2 131532Z 10004KT 25/23 A2998 RMK A01 T02480234  RH  092%=      5-min Rain = 0
KST2 131533Z 11003KT 25/24 A2998 RMK A01 T02490235  RH  092%=      5-min Rain = 0
KST2 131534Z 11003KT 25/24 A2998 RMK A01 T02480235  RH  092%=      5-min Rain = 0
KST2 131535Z 10004KT 25/23 A2998 RMK A01 T02480234  RH  092%=      5-min Rain = 0
KST2 131536Z 10004KT 25/23 A2998 RMK A01 T02480233  RH  091%=      5-min Rain = 0
KST2 131537Z 10004KT 25/23 A2998 RMK A01 T02480234  RH  092%=      5-min Rain = 0.01
KST2 131538Z 10004KT 25/23 A2998 RMK A01 T02480234  RH  092%=      5-min Rain = 0
KST2 131539Z 11005KT 25/23 A2998 RMK A01 T02480234  RH  092%=      5-min Rain = 0
KST2 131540Z 10005KT 25/23 A2998 RMK A01 T02480233  RH  092%=      5-min Rain = 0
KST2 131541Z 10004KT 25/23 A2998 RMK A01 T02470233  RH  092%=      5-min Rain = 0
KST2 131542Z 11004KT 25/23 A2998 RMK A01 T02470233  RH  092%=      5-min Rain = 0
KST2 131543Z 11005KT 25/23 A2998 RMK A01 T02460234  RH  093%=      5-min Rain = 0.01
KST2 131544Z 11005KT 25/23 A2998 RMK A01 T02470234  RH  093%=      5-min Rain = 0
KST2 131545Z 11006KT 25/23 A2998 RMK A01 T02470234  RH  093%=      5-min Rain = 0
KST2 131546Z 11005KT 25/23 A2998 RMK A01 T02470234  RH  093%=      5-min Rain = 0
KST2 131547Z 11005KT 25/23 A2998 RMK A01 T02460234  RH  093%=      5-min Rain = 0
KST2 131548Z 11006KT 25/23 A2998 RMK A01 T02470234  RH  093%=      5-min Rain = 0
KST2 131549Z 10006KT 25/24 A2998 RMK A01 T02470235  RH  093%=      5-min Rain = 0.01
KST2 131550Z 11006KT 25/24 A2998 RMK A01 T02470235  RH  093%=      5-min Rain = 0
KST2 131551Z 10007KT 25/23 A2998 RMK A01 T02460234  RH  093%=      5-min Rain = 0
KST2 131552Z 10006KT 25/23 A2998 RMK A01 T02470234  RH  093%=      5-min Rain = 0
KST2 131553Z 10006KT 25/24 A2998 RMK A01 T02470235  RH  093%=      5-min Rain = 0
KST2 131554Z 10007KT 25/24 A2998 RMK A01 T02460235  RH  093%=      5-min Rain = 0
KST2 131555Z 11005KT 25/23 A2998 RMK A01 T02470234  RH  093%=      5-min Rain = 0
KST2 131556Z 11005KT 25/24 A2998 RMK A01 T02470235  RH  093%=      5-min Rain = 0
KST2 131557Z 12005KT 25/24 A2998 RMK A01 T02470236  RH  093%=      5-min Rain = 0
KST2 131558Z 12005KT 25/24 A2998 RMK A01 T02480236  RH  093%=      5-min Rain = 0
KST2 131559Z 11004KT 25/24 A2998 RMK A01 T02480236  RH  093%=      5-min Rain = 0
KST2 131600Z 11005KT 25/24 A2998 RMK A01 T02480236  RH  093%=      5-min Rain = 0
KST2 131601Z 11005KT 25/24 A2998 RMK A01 T02480235  RH  093%=      5-min Rain = 0
KST2 131602Z 13004KT 25/24 A2998 RMK A01 T02480236  RH  093%=      5-min Rain = 0
KST2 131603Z 12004KT 25/24 A2998 RMK A01 T02470235  RH  093%=      5-min Rain = 0.01
KST2 131604Z 12003KT 25/24 A2998 RMK A01 T02480236  RH  093%=      5-min Rain = 0
KST2 131605Z 12001KT 25/24 A2998 RMK A01 T02480238  RH  094%=      5-min Rain = 0
KST2 131606Z 12002KT 25/24 A2998 RMK A01 T02480237  RH  094%=      5-min Rain = 0
KST2 131607Z 15002KT 25/24 A2999 RMK A01 T02480237  RH  094%=      5-min Rain = 0
KST2 131608Z 16001KT 25/24 A2999 RMK A01 T02480236  RH  093%=      5-min Rain = 0
KST2 131609Z 22001KT 25/24 A2999 RMK A01 T02480238  RH  094%=      5-min Rain = 0
KST2 131610Z 28000KT 25/24 A2999 RMK A01 T02480237  RH  093%=      5-min Rain = 0
KST2 131611Z 32000KT 25/24 A2999 RMK A01 T02490236  RH  093%=      5-min Rain = 0
KST2 131612Z 03001KT 25/24 A2999 RMK A01 T02480236  RH  093%=      5-min Rain = 0
KST2 131613Z 07002KT 25/24 A2999 RMK A01 T02490236  RH  093%=      5-min Rain = 0
KST2 131614Z 09003KT 25/24 A2998 RMK A01 T02480235  RH  093%=      5-min Rain = 0
KST2 131615Z 09003KT 25/24 A2998 RMK A01 T02480236  RH  093%=      5-min Rain = 0
KST2 131616Z 09004KT 25/24 A2998 RMK A01 T02480237  RH  093%=      5-min Rain = 0.01
KST2 131617Z 10005KT 25/24 A2998 RMK A01 T02480237  RH  093%=      5-min Rain = 0
KST2 131618Z 09006KT 25/24 A2998 RMK A01 T02480236  RH  093%=      5-min Rain = 0
KST2 131619Z 11006KT 25/24 A2998 RMK A01 T02470237  RH  094%=      5-min Rain = 0
KST2 131620Z 11005KT 25/24 A2998 RMK A01 T02480237  RH  094%=      5-min Rain = 0
KST2 131621Z 11005KT 25/24 A2998 RMK A01 T02470237  RH  094%=      5-min Rain = 0
KST2 131622Z 10005KT 25/24 A2998 RMK A01 T02480237  RH  094%=      5-min Rain = 0
KST2 131623Z 11004KT 25/24 A2998 RMK A01 T02470237  RH  094%=      5-min Rain = 0
KST2 131624Z 10004KT 25/24 A2998 RMK A01 T02470236  RH  094%=      5-min Rain = 0
KST2 131625Z 09003KT 25/24 A2998 RMK A01 T02470235  RH  093%=      5-min Rain = 0
KST2 131626Z 08003KT 25/24 A2998 RMK A01 T02460235  RH  093%=      5-min Rain = 0
KST2 131627Z 09002KT 25/24 A2998 RMK A01 T02470236  RH  094%=      5-min Rain = 0
KST2 131628Z 10003KT 25/24 A2998 RMK A01 T02480236  RH  093%=      5-min Rain = 0
KST2 131629Z 10004KT 25/23 A2998 RMK A01 T02470234  RH  092%=      5-min Rain = 0
KST2 131630Z 10005KT 25/24 A2998 RMK A01 T02470235  RH  093%=      5-min Rain = 0
KST2 131631Z 10005KT 25/24 A2997 RMK A01 T02480235  RH  093%=      5-min Rain = 0
KST2 131632Z 10006KT 25/24 A2997 RMK A01 T02470236  RH  093%=      5-min Rain = 0
KST2 131633Z 10005KT 25/24 A2997 RMK A01 T02480236  RH  093%=      5-min Rain = 0
KST2 131634Z 10005KT 25/24 A2997 RMK A01 T02480237  RH  094%=      5-min Rain = 0
KST2 131635Z 10006KT 25/24 A2997 RMK A01 T02480237  RH  093%=      5-min Rain = 0
KST2 131636Z 11007KT 25/24 A2997 RMK A01 T02480237  RH  094%=      5-min Rain = 0
KST2 131637Z 11007KT 25/24 A2997 RMK A01 T02480237  RH  094%=      5-min Rain = 0
KST2 131638Z 11007KT 25/24 A2997 RMK A01 T02480237  RH  094%=      5-min Rain = 0
KST2 131639Z 11007KT 25/24 A2997 RMK A01 T02480237  RH  094%=      5-min Rain = 0
KST2 131640Z 12007KT 25/24 A2997 RMK A01 T02480237  RH  094%=      5-min Rain = 0
KST2 131641Z 12007KT 25/24 A2997 RMK A01 T02480237  RH  094%=      5-min Rain = 0
KST2 131642Z 12007KT 25/24 A2997 RMK A01 T02480237  RH  094%=      5-min Rain = 0
KST2 131643Z 12007KT 25/24 A2997 RMK A01 T02490237  RH  093%=      5-min Rain = 0
KST2 131644Z 12006KT 25/24 A2996 RMK A01 T02490237  RH  093%=      5-min Rain = 0
KST2 131645Z 12007KT 25/24 A2996 RMK A01 T02490239  RH  094%=      5-min Rain = 0
KST2 131646Z 13008KT 25/24 A2996 RMK A01 T02490238  RH  094%=      5-min Rain = 0
KST2 131647Z 12007KT 25/24 A2996 RMK A01 T02490238  RH  094%=      5-min Rain = 0
KST2 131648Z 13007KT 25/24 A2996 RMK A01 T02490238  RH  094%=      5-min Rain = 0
KST2 131649Z 13008KT 25/24 A2996 RMK A01 T02490238  RH  093%=      5-min Rain = 0
KST2 131650Z 13008KT 25/24 A2996 RMK A01 T02490238  RH  093%=      5-min Rain = 0
KST2 131651Z 13007KT 25/24 A2996 RMK A01 T02490238  RH  093%=      5-min Rain = 0
KST2 131652Z 12006KT 25/24 A2996 RMK A01 T02490238  RH  093%=      5-min Rain = 0
KST2 131653Z 13006KT 25/24 A2996 RMK A01 T02500239  RH  094%=      5-min Rain = 0
KST2 131654Z 13008KT 25/24 A2996 RMK A01 T02500238  RH  093%=      5-min Rain = 0
KST2 131655Z 12006KT 25/24 A2996 RMK A01 T02500238  RH  093%=      5-min Rain = 0
KST2 131656Z 12007KT 25/24 A2996 RMK A01 T02500239  RH  093%=      5-min Rain = 0
KST2 131657Z 13006KT 25/24 A2996 RMK A01 T02500238  RH  093%=      5-min Rain = 0
KST2 131658Z 12006KT 25/24 A2996 RMK A01 T02510240  RH  094%=      5-min Rain = 0
KST2 131659Z 12009KT 25/24 A2996 RMK A01 T02510239  RH  093%=      5-min Rain = 0
KST2 131700Z 12008KT 25/24 A2996 RMK A01 T02510238  RH  092%=      5-min Rain = 0
KST2 131701Z 12009KT 25/24 A2996 RMK A01 T02510237  RH  092%=      5-min Rain = 0
KST2 131702Z 11009KT 25/24 A2996 RMK A01 T02510237  RH  092%=      5-min Rain = 0
KST2 131703Z 12008KT 25/24 A2996 RMK A01 T02510238  RH  093%=      5-min Rain = 0
KST2 131704Z 13007KT 25/24 A2996 RMK A01 T02510239  RH  093%=      5-min Rain = 0
KST2 131705Z 13008KT 25/24 A2996 RMK A01 T02520239  RH  093%=      5-min Rain = 0
KST2 131706Z 13008KT 25/24 A2996 RMK A01 T02520240  RH  093%=      5-min Rain = 0
KST2 131707Z 13007KT 25/24 A2996 RMK A01 T02530241  RH  093%=      5-min Rain = 0
KST2 131708Z 13009KT 25/24 A2995 RMK A01 T02530241  RH  093%=      5-min Rain = 0
KST2 131709Z 14010KT 25/24 A2995 RMK A01 T02530240  RH  092%=      5-min Rain = 0
KST2 131710Z 13009KT 25/24 A2995 RMK A01 T02530239  RH  092%=      5-min Rain = 0
KST2 131711Z 13009KT 25/24 A2995 RMK A01 T02530240  RH  092%=      5-min Rain = 0
KST2 131712Z 13008KT 25/24 A2995 RMK A01 T02540241  RH  092%=      5-min Rain = 0
KST2 131713Z 13009KT 25/24 A2995 RMK A01 T02540242  RH  093%=      5-min Rain = 0
KST2 131714Z 14009KT 25/24 A2995 RMK A01 T02540241  RH  093%=      5-min Rain = 0
KST2 131715Z 14011KT 25/24 A2995 RMK A01 T02540240  RH  092%=      5-min Rain = 0
KST2 131716Z 14010KT 25/24 A2995 RMK A01 T02540239  RH  091%=      5-min Rain = 0
KST2 131717Z 13009KT 25/24 A2995 RMK A01 T02540240  RH  092%=      5-min Rain = 0
KST2 131718Z 13009KT 26/24 A2995 RMK A01 T02550241  RH  092%=      5-min Rain = 0
KST2 131719Z 13010KT 26/24 A2995 RMK A01 T02560240  RH  091%=      5-min Rain = 0
KST2 131720Z 13010KT 26/24 A2995 RMK A01 T02580241  RH  090%=      5-min Rain = 0
KST2 131721Z 13009KT 26/24 A2995 RMK A01 T02600241  RH  089%=      5-min Rain = 0
KST2 131722Z 13009KT 26/24 A2995 RMK A01 T02620242  RH  089%=      5-min Rain = 0
KST2 131723Z 13008KT 26/24 A2995 RMK A01 T02640244  RH  089%=      5-min Rain = 0
KST2 131724Z 14009KT 27/25 A2995 RMK A01 T02660247  RH  089%=      5-min Rain = 0
KST2 131725Z 14008KT 27/25 A2995 RMK A01 T02670247  RH  089%=      5-min Rain = 0
KST2 131726Z 14008KT 27/25 A2995 RMK A01 T02670246  RH  088%=      5-min Rain = 0
KST2 131727Z 15010KT 27/24 A2994 RMK A01 T02670244  RH  087%=      5-min Rain = 0
KST2 131728Z 14010KT 27/24 A2994 RMK A01 T02680242  RH  086%=      5-min Rain = 0
KST2 131729Z 14009KT 27/24 A2995 RMK A01 T02680242  RH  086%=      5-min Rain = 0
KST2 131730Z 14009KT 27/24 A2995 RMK A01 T02670238  RH  084%=      5-min Rain = 0
KST2 131731Z 14008KT 27/24 A2995 RMK A01 T02660238  RH  085%=      5-min Rain = 0
KST2 131732Z 14010KT 27/24 A2994 RMK A01 T02650238  RH  085%=      5-min Rain = 0
KST2 131733Z 14010KT 27/24 A2995 RMK A01 T02650238  RH  085%=      5-min Rain = 0
KST2 131734Z 14009KT 26/24 A2994 RMK A01 T02640236  RH  084%=      5-min Rain = 0
KST2 131735Z 14008KT 27/24 A2994 RMK A01 T02650239  RH  086%=      5-min Rain = 0
KST2 131736Z 13008KT 27/24 A2994 RMK A01 T02670239  RH  084%=      5-min Rain = 0
KST2 131737Z 14009KT 27/24 A2994 RMK A01 T02680235  RH  082%=      5-min Rain = 0
KST2 131738Z 13008KT 27/24 A2994 RMK A01 T02690238  RH  083%=      5-min Rain = 0
KST2 131739Z 13007KT 27/24 A2994 RMK A01 T02710241  RH  084%=      5-min Rain = 0
KST2 131740Z 13007KT 27/24 A2994 RMK A01 T02720241  RH  083%=      5-min Rain = 0
KST2 131741Z 13007KT 27/24 A2994 RMK A01 T02730242  RH  083%=      5-min Rain = 0
KST2 131742Z 12007KT 27/24 A2994 RMK A01 T02740242  RH  083%=      5-min Rain = 0
KST2 131743Z 13007KT 27/24 A2994 RMK A01 T02740240  RH  082%=      5-min Rain = 0
KST2 131744Z 13007KT 27/24 A2994 RMK A01 T02740238  RH  080%=      5-min Rain = 0
KST2 131745Z 14007KT 27/24 A2994 RMK A01 T02740236  RH  079%=      5-min Rain = 0
KST2 131746Z 12006KT 27/24 A2994 RMK A01 T02740237  RH  080%=      5-min Rain = 0
KST2 131747Z 13007KT 27/23 A2994 RMK A01 T02740234  RH  079%=      5-min Rain = 0
KST2 131748Z 14006KT 27/24 A2994 RMK A01 T02730239  RH  081%=      5-min Rain = 0
KST2 131749Z 12006KT 27/24 A2994 RMK A01 T02740240  RH  082%=      5-min Rain = 0
KST2 131750Z 12005KT 28/24 A2994 RMK A01 T02750237  RH  080%=      5-min Rain = 0
KST2 131751Z 12005KT 28/24 A2994 RMK A01 T02760241  RH  081%=      5-min Rain = 0
KST2 131752Z 14006KT 28/24 A2994 RMK A01 T02760241  RH  081%=      5-min Rain = 0
KST2 131753Z 13008KT 28/24 A2994 RMK A01 T02770236  RH  078%=      5-min Rain = 0
KST2 131754Z 14008KT 28/23 A2994 RMK A01 T02780232  RH  076%=      5-min Rain = 0
KST2 131755Z 14008KT 28/23 A2994 RMK A01 T02770231  RH  076%=      5-min Rain = 0
KST2 131756Z 15009KT 28/23 A2994 RMK A01 T02760230  RH  076%=      5-min Rain = 0
KST2 131757Z 16007KT 28/23 A2994 RMK A01 T02770226  RH  074%=      5-min Rain = 0
KST2 131758Z 16008KT 28/23 A2994 RMK A01 T02780229  RH  075%=      5-min Rain = 0
KST2 131759Z 16009KT 28/23 A2994 RMK A01 T02780229  RH  075%=      5-min Rain = 0
KST2 131800Z 15006KT 28/23 A2994 RMK A01 T02790230  RH  075%=      5-min Rain = 0
KST2 131801Z 15006KT 28/24 A2994 RMK A01 T02820237  RH  077%=      5-min Rain = 0
KST2 131802Z 15008KT 28/23 A2994 RMK A01 T02840231  RH  073%=      5-min Rain = 0
KST2 131803Z 15009KT 29/23 A2994 RMK A01 T02850230  RH  072%=      5-min Rain = 0
KST2 131804Z 15007KT 28/23 A2994 RMK A01 T02840229  RH  072%=      5-min Rain = 0
KST2 131805Z 16007KT 28/23 A2994 RMK A01 T02830232  RH  074%=      5-min Rain = 0
KST2 131806Z 15008KT 28/23 A2993 RMK A01 T02830231  RH  073%=      5-min Rain = 0
KST2 131807Z 16010KT 29/23 A2993 RMK A01 T02850231  RH  073%=      5-min Rain = 0
KST2 131808Z 17010KT 29/23 A2993 RMK A01 T02850232  RH  073%=      5-min Rain = 0
KST2 131809Z 17009KT 29/23 A2993 RMK A01 T02850231  RH  072%=      5-min Rain = 0
KST2 131810Z 17008KT 28/23 A2993 RMK A01 T02840232  RH  073%=      5-min Rain = 0
KST2 131811Z 17009KT 28/24 A2993 RMK A01 T02840237  RH  076%=      5-min Rain = 0
KST2 131812Z 15007KT 28/23 A2993 RMK A01 T02840233  RH  074%=      5-min Rain = 0
KST2 131813Z 15006KT 28/24 A2993 RMK A01 T02840235  RH  075%=      5-min Rain = 0
KST2 131814Z 16006KT 29/24 A2993 RMK A01 T02850240  RH  077%=      5-min Rain = 0
KST2 131815Z 16007KT 29/23 A2993 RMK A01 T02870234  RH  073%=      5-min Rain = 0
KST2 131816Z 14006KT 29/24 A2993 RMK A01 T02870242  RH  076%=      5-min Rain = 0
KST2 131817Z 13008KT 29/24 A2993 RMK A01 T02880237  RH  074%=      5-min Rain = 0
KST2 131818Z 14007KT 29/24 A2993 RMK A01 T02880236  RH  073%=      5-min Rain = 0
KST2 131819Z 15009KT 29/24 A2993 RMK A01 T02880239  RH  075%=      5-min Rain = 0
KST2 131820Z 16009KT 29/24 A2993 RMK A01 T02890237  RH  073%=      5-min Rain = 0
KST2 131821Z 16006KT 29/23 A2993 RMK A01 T02880233  RH  072%=      5-min Rain = 0
KST2 131822Z 14005KT 29/24 A2993 RMK A01 T02880240  RH  075%=      5-min Rain = 0
KST2 131823Z 15007KT 29/24 A2993 RMK A01 T02900239  RH  074%=      5-min Rain = 0
KST2 131824Z 15009KT 29/24 A2993 RMK A01 T02910235  RH  072%=      5-min Rain = 0
KST2 131825Z 15008KT 29/24 A2993 RMK A01 T02910236  RH  072%=      5-min Rain = 0
KST2 131826Z 15009KT 29/24 A2993 RMK A01 T02910236  RH  072%=      5-min Rain = 0
KST2 131827Z 15007KT 29/23 A2993 RMK A01 T02910234  RH  072%=      5-min Rain = 0
KST2 131828Z 14009KT 29/24 A2993 RMK A01 T02900238  RH  074%=      5-min Rain = 0
KST2 131829Z 13008KT 29/24 A2993 RMK A01 T02910238  RH  073%=      5-min Rain = 0
KST2 131830Z 14006KT 29/24 A2993 RMK A01 T02910236  RH  072%=      5-min Rain = 0
KST2 131831Z 13006KT 29/24 A2993 RMK A01 T02900241  RH  075%=      5-min Rain = 0
KST2 131832Z 14009KT 29/24 A2993 RMK A01 T02920242  RH  074%=      5-min Rain = 0
KST2 131833Z 14009KT 29/24 A2993 RMK A01 T02930241  RH  074%=      5-min Rain = 0
KST2 131834Z 13009KT 29/24 A2993 RMK A01 T02940239  RH  073%=      5-min Rain = 0
KST2 131835Z 14008KT 29/24 A2993 RMK A01 T02940240  RH  073%=      5-min Rain = 0
KST2 131836Z 15006KT 30/25 A2993 RMK A01 T02950248  RH  076%=      5-min Rain = 0
KST2 131837Z 16007KT 30/25 A2993 RMK A01 T02980245  RH  073%=      5-min Rain = 0
KST2 131838Z 14010KT 30/24 A2993 RMK A01 T02980241  RH  071%=      5-min Rain = 0
KST2 131839Z 16010KT 30/24 A2993 RMK A01 T02970240  RH  071%=      5-min Rain = 0
KST2 131840Z 17007KT 30/24 A2993 RMK A01 T02960243  RH  073%=      5-min Rain = 0
KST2 131841Z 15008KT 30/24 A2993 RMK A01 T02960240  RH  072%=      5-min Rain = 0
KST2 131842Z 15009KT 30/24 A2993 RMK A01 T02960243  RH  073%=      5-min Rain = 0
KST2 131843Z 14009KT 30/24 A2993 RMK A01 T02970243  RH  073%=      5-min Rain = 0
KST2 131844Z 13008KT 30/24 A2993 RMK A01 T02970243  RH  073%=      5-min Rain = 0
KST2 131845Z 13007KT 30/24 A2993 RMK A01 T02970241  RH  072%=      5-min Rain = 0
KST2 131846Z 13010KT 30/24 A2993 RMK A01 T02960239  RH  071%=      5-min Rain = 0
KST2 131847Z 15010KT 30/24 A2993 RMK A01 T02960241  RH  073%=      5-min Rain = 0
KST2 131848Z 15007KT 30/24 A2993 RMK A01 T02960238  RH  071%=      5-min Rain = 0
KST2 131849Z 15007KT 30/24 A2993 RMK A01 T02950241  RH  073%=      5-min Rain = 0
KST2 131850Z 15008KT 30/24 A2993 RMK A01 T02950242  RH  073%=      5-min Rain = 0
KST2 131851Z 15009KT 30/24 A2993 RMK A01 T02960238  RH  071%=      5-min Rain = 0
KST2 131852Z 15006KT 30/24 A2993 RMK A01 T02960242  RH  073%=      5-min Rain = 0
KST2 131853Z 15007KT 30/24 A2993 RMK A01 T02970236  RH  070%=      5-min Rain = 0
KST2 131854Z 15006KT 30/24 A2993 RMK A01 T02960237  RH  071%=      5-min Rain = 0
KST2 131855Z 15005KT 30/24 A2993 RMK A01 T02960240  RH  072%=      5-min Rain = 0
KST2 131856Z 18005KT 30/24 A2993 RMK A01 T02960237  RH  071%=      5-min Rain = 0
KST2 131857Z 17005KT 30/24 A2993 RMK A01 T02970241  RH  072%=      5-min Rain = 0
KST2 131858Z 16006KT 30/24 A2993 RMK A01 T02970243  RH  073%=      5-min Rain = 0
KST2 131859Z 17007KT 30/24 A2993 RMK A01 T02990240  RH  071%=      5-min Rain = 0
KST2 131900Z 17005KT 30/24 A2993 RMK A01 T02990238  RH  070%=      5-min Rain = 0
KST2 131901Z 16008KT 30/24 A2993 RMK A01 T02990244  RH  072%=      5-min Rain = 0
KST2 131902Z 16007KT 30/24 A2993 RMK A01 T03000239  RH  070%=      5-min Rain = 0
KST2 131903Z 17005KT 30/24 A2993 RMK A01 T03000240  RH  070%=      5-min Rain = 0
KST2 131904Z 18006KT 30/24 A2992 RMK A01 T03010240  RH  070%=      5-min Rain = 0
KST2 131905Z 17004KT 30/24 A2992 RMK A01 T03010239  RH  069%=      5-min Rain = 0
KST2 131906Z 14005KT 30/24 A2992 RMK A01 T03010236  RH  068%=      5-min Rain = 0
KST2 131907Z 14004KT 30/23 A2992 RMK A01 T03010233  RH  067%=      5-min Rain = 0
KST2 131908Z 17006KT 30/24 A2992 RMK A01 T03010241  RH  070%=      5-min Rain = 0
KST2 131909Z 16007KT 30/24 A2992 RMK A01 T03020235  RH  067%=      5-min Rain = 0
KST2 131910Z 16006KT 30/23 A2992 RMK A01 T03020233  RH  066%=      5-min Rain = 0
KST2 131911Z 17009KT 30/23 A2992 RMK A01 T03030232  RH  066%=      5-min Rain = 0
KST2 131912Z 17009KT 31/23 A2992 RMK A01 T03050227  RH  063%=      5-min Rain = 0
KST2 131913Z 17007KT 31/23 A2992 RMK A01 T03050227  RH  063%=      5-min Rain = 0
KST2 131914Z 18007KT 31/23 A2992 RMK A01 T03050232  RH  065%=      5-min Rain = 0
KST2 131915Z 19008KT 31/23 A2992 RMK A01 T03060230  RH  064%=      5-min Rain = 0
KST2 131916Z 15007KT 31/24 A2992 RMK A01 T03060235  RH  066%=      5-min Rain = 0
KST2 131917Z 18008KT 31/23 A2992 RMK A01 T03080234  RH  065%=      5-min Rain = 0
KST2 131918Z 17012KT 31/23 A2992 RMK A01 T03090234  RH  064%=      5-min Rain = 0
KST2 131919Z 16010KT 31/24 A2992 RMK A01 T03090235  RH  065%=      5-min Rain = 0
KST2 131920Z 16008KT 31/23 A2992 RMK A01 T03080232  RH  064%=      5-min Rain = 0
KST2 131921Z 15008KT 31/24 A2992 RMK A01 T03080237  RH  066%=      5-min Rain = 0
KST2 131922Z 14008KT 31/23 A2992 RMK A01 T03100234  RH  064%=      5-min Rain = 0
KST2 131923Z 14007KT 31/24 A2992 RMK A01 T03110236  RH  064%=      5-min Rain = 0
KST2 131924Z 17007KT 31/24 A2992 RMK A01 T03120235  RH  064%=      5-min Rain = 0
KST2 131925Z 17009KT 31/23 A2992 RMK A01 T03120232  RH  063%=      5-min Rain = 0
KST2 131926Z 19007KT 31/23 A2992 RMK A01 T03110234  RH  064%=      5-min Rain = 0
KST2 131927Z 19007KT 31/24 A2992 RMK A01 T03100235  RH  064%=      5-min Rain = 0
KST2 131928Z 20005KT 31/23 A2992 RMK A01 T03100228  RH  062%=      5-min Rain = 0
KST2 131929Z 16004G9KT 31/24 A2992 RMK A01 T03090237  RH  065%=      5-min Rain = 0
KST2 131930Z 15005KT 31/24 A2992 RMK A01 T03120242  RH  067%=      5-min Rain = 0
KST2 131931Z 14007KT 31/24 A2992 RMK A01 T03140236  RH  063%=      5-min Rain = 0
KST2 131932Z 16005KT 31/23 A2992 RMK A01 T03140231  RH  061%=      5-min Rain = 0
KST2 131933Z 16007KT 31/24 A2992 RMK A01 T03130235  RH  063%=      5-min Rain = 0
KST2 131934Z 16007KT 31/23 A2992 RMK A01 T03130230  RH  062%=      5-min Rain = 0
KST2 131935Z 16007KT 31/23 A2992 RMK A01 T03120227  RH  060%=      5-min Rain = 0
KST2 131936Z 17004KT 31/23 A2992 RMK A01 T03110227  RH  061%=      5-min Rain = 0
KST2 131937Z 16004KT 31/23 A2992 RMK A01 T03110229  RH  062%=      5-min Rain = 0
KST2 131938Z 15006KT 31/23 A2991 RMK A01 T03120231  RH  062%=      5-min Rain = 0
KST2 131939Z 14004KT 31/24 A2991 RMK A01 T03130235  RH  063%=      5-min Rain = 0
KST2 131940Z 15005KT 31/24 A2991 RMK A01 T03140235  RH  063%=      5-min Rain = 0
KST2 131941Z 18006KT 32/24 A2991 RMK A01 T03160237  RH  063%=      5-min Rain = 0
KST2 131942Z 17007KT 32/23 A2991 RMK A01 T03170234  RH  062%=      5-min Rain = 0
KST2 131943Z 16008KT 32/23 A2991 RMK A01 T03170230  RH  060%=      5-min Rain = 0
KST2 131944Z 15007KT 32/23 A2991 RMK A01 T03170232  RH  061%=      5-min Rain = 0
KST2 131945Z 16007KT 32/23 A2991 RMK A01 T03170231  RH  060%=      5-min Rain = 0
KST2 131946Z 18008KT 32/23 A2991 RMK A01 T03180231  RH  060%=      5-min Rain = 0
KST2 131947Z 19007KT 32/23 A2991 RMK A01 T03170226  RH  058%=      5-min Rain = 0
KST2 131948Z 20009KT 32/23 A2991 RMK A01 T03170228  RH  059%=      5-min Rain = 0
KST2 131949Z 19009KT 32/23 A2991 RMK A01 T03170231  RH  060%=      5-min Rain = 0
KST2 131950Z 18009KT 32/23 A2991 RMK A01 T03180230  RH  060%=      5-min Rain = 0
KST2 131951Z 17010KT 32/23 A2991 RMK A01 T03180234  RH  061%=      5-min Rain = 0
KST2 131952Z 17008KT 32/23 A2991 RMK A01 T03170229  RH  059%=      5-min Rain = 0
KST2 131953Z 17008KT 32/23 A2991 RMK A01 T03160232  RH  061%=      5-min Rain = 0
KST2 131954Z 16009KT 32/23 A2991 RMK A01 T03160233  RH  061%=      5-min Rain = 0
KST2 131955Z 17007KT 32/23 A2991 RMK A01 T03170229  RH  060%=      5-min Rain = 0
KST2 131956Z 18007KT 32/23 A2991 RMK A01 T03170233  RH  061%=      5-min Rain = 0
KST2 131957Z 16007KT 32/23 A299 RMK A01 T03170232  RH  061%=      5-min Rain = 0
KST2 131958Z 19007KT 32/24 A299 RMK A01 T03180235  RH  062%=      5-min Rain = 0
KST2 131959Z 19007KT 32/23 A299 RMK A01 T03180234  RH  061%=      5-min Rain = 0
KST2 132000Z 18006KT 32/23 A299 RMK A01 T03190233  RH  060%=      5-min Rain = 0
KST2 132001Z 18005KT 32/23 A299 RMK A01 T03190232  RH  060%=      5-min Rain = 0
KST2 132002Z 19004KT 32/24 A299 RMK A01 T03190237  RH  062%=      5-min Rain = 0
KST2 132003Z 19007KT 32/24 A299 RMK A01 T03210236  RH  061%=      5-min Rain = 0
KST2 132004Z 19009KT 32/24 A299 RMK A01 T03210240  RH  062%=      5-min Rain = 0
KST2 132005Z 18006KT 32/23 A299 RMK A01 T03210230  RH  058%=      5-min Rain = 0
KST2 132006Z 18006KT 32/23 A299 RMK A01 T03190230  RH  059%=      5-min Rain = 0
KST2 132007Z 17007KT 32/23 A299 RMK A01 T03180233  RH  061%=      5-min Rain = 0
KST2 132008Z 15009KT 32/24 A299 RMK A01 T03190235  RH  061%=      5-min Rain = 0
KST2 132009Z 14010KT 32/23 A299 RMK A01 T03200227  RH  058%=      5-min Rain = 0
KST2 132010Z 16010KT 32/23 A299 RMK A01 T03200233  RH  060%=      5-min Rain = 0
KST2 132011Z 18009KT 32/23 A299 RMK A01 T03210232  RH  060%=      5-min Rain = 0
KST2 132012Z 19006KT 32/23 A299 RMK A01 T03200227  RH  058%=      5-min Rain = 0
KST2 132013Z 18007KT 32/23 A299 RMK A01 T03190233  RH  061%=      5-min Rain = 0
KST2 132014Z 17005KT 32/23 A299 RMK A01 T03190229  RH  059%=      5-min Rain = 0
KST2 132015Z 18006KT 32/23 A299 RMK A01 T03190232  RH  060%=      5-min Rain = 0
KST2 132016Z 18008KT 32/23 A299 RMK A01 T03200232  RH  060%=      5-min Rain = 0
KST2 132017Z 18008KT 32/23 A299 RMK A01 T03210234  RH  060%=      5-min Rain = 0
KST2 132018Z 18005KT 32/23 A299 RMK A01 T03210228  RH  058%=      5-min Rain = 0
KST2 132019Z 20007KT 32/24 A299 RMK A01 T03210236  RH  061%=      5-min Rain = 0
KST2 132020Z 19010KT 32/23 A2989 RMK A01 T03230234  RH  060%=      5-min Rain = 0
KST2 132021Z 16008KT 33/24 A2989 RMK A01 T03250236  RH  060%=      5-min Rain = 0
KST2 132022Z 12007KT 33/23 A299 RMK A01 T03250232  RH  058%=      5-min Rain = 0
KST2 132023Z 13008KT 32/24 A2989 RMK A01 T03240236  RH  060%=      5-min Rain = 0
KST2 132024Z 15009KT 32/23 A2989 RMK A01 T03240231  RH  058%=      5-min Rain = 0
KST2 132025Z 16005KT 32/23 A2989 RMK A01 T03230229  RH  058%=      5-min Rain = 0
KST2 132026Z 14004KT 32/23 A2989 RMK A01 T03220227  RH  057%=      5-min Rain = 0
KST2 132027Z 15006KT 32/23 A2989 RMK A01 T03220234  RH  060%=      5-min Rain = 0
KST2 132028Z 15008KT 32/24 A2989 RMK A01 T03240241  RH  062%=      5-min Rain = 0
KST2 132029Z 17010KT 33/23 A2989 RMK A01 T03260234  RH  058%=      5-min Rain = 0
KST2 132030Z 18008KT 33/24 A2989 RMK A01 T03250236  RH  059%=      5-min Rain = 0
KST2 132031Z 17008KT 32/23 A2989 RMK A01 T03240230  RH  058%=      5-min Rain = 0
KST2 132032Z 17008KT 32/23 A2989 RMK A01 T03230231  RH  058%=      5-min Rain = 0
KST2 132033Z 16009KT 32/23 A2988 RMK A01 T03230228  RH  057%=      5-min Rain = 0
KST2 132034Z 17010KT 32/23 A2988 RMK A01 T03240228  RH  057%=      5-min Rain = 0
KST2 132035Z 14008KT 32/23 A2988 RMK A01 T03240230  RH  058%=      5-min Rain = 0
KST2 132036Z 15008KT 32/23 A2988 RMK A01 T03240229  RH  057%=      5-min Rain = 0
KST2 132037Z 14008KT 33/23 A2988 RMK A01 T03250230  RH  057%=      5-min Rain = 0
KST2 132038Z 17011KT 33/23 A2988 RMK A01 T03270234  RH  058%=      5-min Rain = 0
KST2 132039Z 18009KT 33/23 A2988 RMK A01 T03280227  RH  055%=      5-min Rain = 0
KST2 132040Z 18010KT 33/23 A2988 RMK A01 T03270227  RH  056%=      5-min Rain = 0
KST2 132041Z 19009KT 33/23 A2988 RMK A01 T03270225  RH  055%=      5-min Rain = 0
KST2 132042Z 17006KT 33/22 A2988 RMK A01 T03280224  RH  055%=      5-min Rain = 0
KST2 132043Z 18006KT 33/22 A2988 RMK A01 T03280224  RH  054%=      5-min Rain = 0
KST2 132044Z 17008KT 33/23 A2988 RMK A01 T03280232  RH  057%=      5-min Rain = 0
KST2 132045Z 17007KT 33/23 A2988 RMK A01 T03290228  RH  056%=      5-min Rain = 0
KST2 132046Z 16011KT 33/23 A2987 RMK A01 T03290229  RH  056%=      5-min Rain = 0
KST2 132047Z 16010KT 33/23 A2987 RMK A01 T03300230  RH  056%=      5-min Rain = 0
KST2 132048Z 16009KT 33/23 A2987 RMK A01 T03300230  RH  056%=      5-min Rain = 0
KST2 132049Z 17009KT 33/23 A2987 RMK A01 T03300226  RH  054%=      5-min Rain = 0
KST2 132050Z 18010KT 33/23 A2987 RMK A01 T03300228  RH  055%=      5-min Rain = 0
KST2 132051Z 17010KT 33/23 A2987 RMK A01 T03290227  RH  055%=      5-min Rain = 0
KST2 132052Z 18010KT 33/23 A2987 RMK A01 T03290229  RH  056%=      5-min Rain = 0
KST2 132053Z 18009KT 33/23 A2987 RMK A01 T03290226  RH  055%=      5-min Rain = 0
KST2 132054Z 18008KT 33/23 A2987 RMK A01 T03290227  RH  055%=      5-min Rain = 0
KST2 132055Z 17007KT 33/22 A2987 RMK A01 T03290224  RH  054%=      5-min Rain = 0
KST2 132056Z 16007KT 33/22 A2987 RMK A01 T03290224  RH  054%=      5-min Rain = 0
KST2 132057Z 16007KT 33/23 A2987 RMK A01 T03290226  RH  055%=      5-min Rain = 0
KST2 132058Z 16010KT 33/23 A2987 RMK A01 T03290228  RH  056%=      5-min Rain = 0
KST2 132059Z 16010KT 33/23 A2987 RMK A01 T03300229  RH  056%=      5-min Rain = 0
KST2 132100Z 16009KT 33/23 A2987 RMK A01 T03300226  RH  055%=      5-min Rain = 0
KST2 132101Z 16007KT 33/23 A2987 RMK A01 T03300232  RH  057%=      5-min Rain = 0
KST2 132102Z 16007KT 33/22 A2987 RMK A01 T03310223  RH  053%=      5-min Rain = 0
KST2 132103Z 18006KT 33/22 A2987 RMK A01 T03300222  RH  053%=      5-min Rain = 0
KST2 132104Z 19007KT 33/23 A2987 RMK A01 T03290227  RH  055%=      5-min Rain = 0
KST2 132105Z 17008KT 33/23 A2987 RMK A01 T03310227  RH  054%=      5-min Rain = 0
KST2 132106Z 17007KT 33/23 A2987 RMK A01 T03310225  RH  054%=      5-min Rain = 0
KST2 132107Z 17006KT 33/23 A2987 RMK A01 T03300228  RH  055%=      5-min Rain = 0
KST2 132108Z 17010KT 33/23 A2987 RMK A01 T03300230  RH  056%=      5-min Rain = 0
KST2 132109Z 16012KT 33/23 A2986 RMK A01 T03310227  RH  054%=      5-min Rain = 0
KST2 132110Z 17010KT 33/23 A2987 RMK A01 T03300226  RH  055%=      5-min Rain = 0
KST2 132111Z 15010KT 33/23 A2986 RMK A01 T03290230  RH  056%=      5-min Rain = 0
KST2 132112Z 15012KT 33/23 A2986 RMK A01 T03310230  RH  056%=      5-min Rain = 0
KST2 132113Z 15010KT 33/23 A2986 RMK A01 T03310228  RH  055%=      5-min Rain = 0
KST2 132114Z 14009KT 33/23 A2986 RMK A01 T03300231  RH  056%=      5-min Rain = 0
KST2 132115Z 14010KT 33/23 A2986 RMK A01 T03290231  RH  056%=      5-min Rain = 0
KST2 132116Z 14010KT 33/23 A2986 RMK A01 T03290232  RH  057%=      5-min Rain = 0
KST2 132117Z 14010KT 33/23 A2986 RMK A01 T03300229  RH  056%=      5-min Rain = 0
KST2 132118Z 14009KT 33/23 A2986 RMK A01 T03300230  RH  056%=      5-min Rain = 0
KST2 132119Z 14009KT 33/23 A2986 RMK A01 T03310233  RH  056%=      5-min Rain = 0
KST2 132120Z 14010KT 33/23 A2986 RMK A01 T03330233  RH  056%=      5-min Rain = 0
KST2 132121Z 14007KT 33/24 A2986 RMK A01 T03340237  RH  057%=      5-min Rain = 0
KST2 132122Z 15008KT 34/23 A2986 RMK A01 T03350234  RH  056%=      5-min Rain = 0
KST2 132123Z 14009KT 34/23 A2986 RMK A01 T03350230  RH  054%=      5-min Rain = 0
KST2 132124Z 15008KT 33/23 A2986 RMK A01 T03340230  RH  055%=      5-min Rain = 0
KST2 132125Z 15007KT 33/23 A2986 RMK A01 T03340232  RH  055%=      5-min Rain = 0
KST2 132126Z 14008KT 34/24 A2986 RMK A01 T03350237  RH  057%=      5-min Rain = 0
KST2 132127Z 15011KT 34/24 A2986 RMK A01 T03360235  RH  055%=      5-min Rain = 0
KST2 132128Z 13011KT 34/24 A2986 RMK A01 T03370236  RH  056%=      5-min Rain = 0
KST2 132129Z 14012KT 34/23 A2986 RMK A01 T03370233  RH  055%=      5-min Rain = 0
KST2 132130Z 13010KT 34/23 A2986 RMK A01 T03360232  RH  055%=      5-min Rain = 0
KST2 132131Z 13009KT 34/24 A2986 RMK A01 T03360237  RH  056%=      5-min Rain = 0
KST2 132132Z 12009KT 34/23 A2986 RMK A01 T03370234  RH  055%=      5-min Rain = 0
KST2 132133Z 13007KT 34/23 A2986 RMK A01 T03370230  RH  054%=      5-min Rain = 0
KST2 132134Z 14007KT 34/23 A2986 RMK A01 T03360231  RH  054%=      5-min Rain = 0
KST2 132135Z 12006KT 34/24 A2985 RMK A01 T03370236  RH  056%=      5-min Rain = 0
KST2 132136Z 12007KT 34/23 A2985 RMK A01 T03380234  RH  055%=      5-min Rain = 0
KST2 132137Z 12009KT 34/23 A2985 RMK A01 T03380233  RH  054%=      5-min Rain = 0
KST2 132138Z 13009KT 34/23 A2985 RMK A01 T03370231  RH  054%=      5-min Rain = 0
KST2 132139Z 15009KT 34/24 A2985 RMK A01 T03370235  RH  055%=      5-min Rain = 0
KST2 132140Z 14009KT 34/24 A2985 RMK A01 T03390240  RH  056%=      5-min Rain = 0
KST2 132141Z 13009G14KT 34/24 A2985 RMK A01 T03410239  RH  055%=      5-min Rain = 0
KST2 132142Z 13008KT 34/23 A2985 RMK A01 T03420233  RH  053%=      5-min Rain = 0
KST2 132143Z 15011KT 34/24 A2985 RMK A01 T03420235  RH  054%=      5-min Rain = 0
KST2 132144Z 16009KT 34/24 A2985 RMK A01 T03420236  RH  054%=      5-min Rain = 0
KST2 132145Z 14009KT 34/24 A2985 RMK A01 T03420236  RH  054%=      5-min Rain = 0
KST2 132146Z 13011KT 34/24 A2985 RMK A01 T03420236  RH  054%=      5-min Rain = 0
KST2 132147Z 14011KT 34/23 A2985 RMK A01 T03410232  RH  053%=      5-min Rain = 0
KST2 132148Z 14009KT 34/23 A2985 RMK A01 T03410229  RH  052%=      5-min Rain = 0
KST2 132149Z 15011KT 34/23 A2985 RMK A01 T03400227  RH  052%=      5-min Rain = 0
KST2 132150Z 16012KT 34/23 A2984 RMK A01 T03380228  RH  053%=      5-min Rain = 0
KST2 132151Z 16011KT 34/23 A2984 RMK A01 T03360229  RH  054%=      5-min Rain = 0
KST2 132152Z 14009KT 33/23 A2984 RMK A01 T03340232  RH  055%=      5-min Rain = 0
KST2 132153Z 13008KT 33/23 A2984 RMK A01 T03330232  RH  056%=      5-min Rain = 0
KST2 132154Z 12009G14KT 33/23 A2984 RMK A01 T03320234  RH  056%=      5-min Rain = 0
KST2 132155Z 12011KT 33/23 A2984 RMK A01 T03310227  RH  054%=      5-min Rain = 0
KST2 132156Z 13008KT 33/22 A2984 RMK A01 T03310223  RH  053%=      5-min Rain = 0
KST2 132157Z 13007KT 33/22 A2984 RMK A01 T03320224  RH  053%=      5-min Rain = 0
KST2 132158Z 15007KT 33/23 A2984 RMK A01 T03330226  RH  053%=      5-min Rain = 0
KST2 132159Z 13005KT 33/23 A2984 RMK A01 T03340226  RH  053%=      5-min Rain = 0
KST2 132200Z 12005KT 34/23 A2984 RMK A01 T03350226  RH  053%=      5-min Rain = 0
KST2 132201Z 16006G12KT 34/23 A2983 RMK A01 T03350233  RH  055%=      5-min Rain = 0
KST2 132202Z 16009KT 34/23 A2983 RMK A01 T03380226  RH  052%=      5-min Rain = 0
KST2 132203Z 14008KT 34/23 A2983 RMK A01 T03380227  RH  052%=      5-min Rain = 0
KST2 132204Z 15007KT 34/23 A2983 RMK A01 T03390225  RH  052%=      5-min Rain = 0
KST2 132205Z 13007KT 34/23 A2983 RMK A01 T03390232  RH  054%=      5-min Rain = 0
KST2 132206Z 13008KT 34/23 A2983 RMK A01 T03410232  RH  053%=      5-min Rain = 0
KST2 132207Z 15009KT 34/23 A2983 RMK A01 T03420231  RH  053%=      5-min Rain = 0
KST2 132208Z 15008KT 34/22 A2983 RMK A01 T03420223  RH  050%=      5-min Rain = 0
KST2 132209Z 15007KT 34/22 A2983 RMK A01 T03410223  RH  050%=      5-min Rain = 0
KST2 132210Z 16005KT 34/23 A2983 RMK A01 T03410230  RH  053%=      5-min Rain = 0
KST2 132211Z 15006KT 34/23 A2983 RMK A01 T03420231  RH  052%=      5-min Rain = 0
KST2 132212Z 15010KT 34/23 A2983 RMK A01 T03430229  RH  052%=      5-min Rain = 0
KST2 132213Z 16009KT 34/23 A2983 RMK A01 T03440230  RH  052%=      5-min Rain = 0
KST2 132214Z 17007KT 34/23 A2983 RMK A01 T03430229  RH  052%=      5-min Rain = 0
KST2 132215Z 17007KT 34/23 A2983 RMK A01 T03410226  RH  051%=      5-min Rain = 0
KST2 132216Z 16007KT 34/22 A2983 RMK A01 T03410224  RH  051%=      5-min Rain = 0
KST2 132217Z 14007KT 34/23 A2983 RMK A01 T03410227  RH  052%=      5-min Rain = 0
KST2 132218Z 15007KT 34/23 A2983 RMK A01 T03410227  RH  052%=      5-min Rain = 0
KST2 132219Z 14006KT 34/23 A2983 RMK A01 T03420228  RH  052%=      5-min Rain = 0
KST2 132220Z 13010KT 34/23 A2983 RMK A01 T03430228  RH  051%=      5-min Rain = 0
KST2 132221Z 16007KT 34/23 A2983 RMK A01 T03420232  RH  053%=      5-min Rain = 0
KST2 132222Z 16009KT 34/23 A2982 RMK A01 T03430229  RH  052%=      5-min Rain = 0
KST2 132223Z 15008KT 34/23 A2982 RMK A01 T03430230  RH  052%=      5-min Rain = 0
KST2 132224Z 15008KT 34/23 A2982 RMK A01 T03430228  RH  051%=      5-min Rain = 0
KST2 132225Z 15008KT 34/23 A2982 RMK A01 T03430228  RH  051%=      5-min Rain = 0
KST2 132226Z 16007KT 34/23 A2982 RMK A01 T03430228  RH  051%=      5-min Rain = 0
KST2 132227Z 16007KT 34/23 A2982 RMK A01 T03420232  RH  053%=      5-min Rain = 0
KST2 132228Z 17007KT 34/23 A2982 RMK A01 T03430228  RH  051%=      5-min Rain = 0
KST2 132229Z 18006KT 34/23 A2982 RMK A01 T03430232  RH  053%=      5-min Rain = 0
KST2 132230Z 16006KT 34/23 A2982 RMK A01 T03440230  RH  052%=      5-min Rain = 0
KST2 132231Z 16007KT 34/24 A2982 RMK A01 T03440235  RH  053%=      5-min Rain = 0
KST2 132232Z 17010KT 35/23 A2982 RMK A01 T03450231  RH  052%=      5-min Rain = 0
KST2 132233Z 17010KT 34/23 A2982 RMK A01 T03440228  RH  051%=      5-min Rain = 0
KST2 132234Z 17009KT 34/22 A2982 RMK A01 T03430224  RH  050%=      5-min Rain = 0
KST2 132235Z 16008KT 34/23 A2982 RMK A01 T03410229  RH  052%=      5-min Rain = 0
KST2 132236Z 15009KT 34/22 A2982 RMK A01 T03410224  RH  051%=      5-min Rain = 0
KST2 132237Z 16007KT 34/23 A2982 RMK A01 T03410225  RH  051%=      5-min Rain = 0
KST2 132238Z 16007KT 34/23 A2982 RMK A01 T03410228  RH  052%=      5-min Rain = 0
KST2 132239Z 15007KT 34/23 A2982 RMK A01 T03420227  RH  051%=      5-min Rain = 0
KST2 132240Z 13009KT 34/23 A2982 RMK A01 T03420227  RH  051%=      5-min Rain = 0
KST2 132241Z 13010KT 34/23 A2982 RMK A01 T03420227  RH  051%=      5-min Rain = 0
KST2 132242Z 14008KT 34/23 A2982 RMK A01 T03410228  RH  052%=      5-min Rain = 0
KST2 132243Z 14010KT 34/23 A2982 RMK A01 T03410228  RH  052%=      5-min Rain = 0
KST2 132244Z 15008KT 34/22 A2982 RMK A01 T03410224  RH  050%=      5-min Rain = 0
KST2 132245Z 16010KT 34/22 A2982 RMK A01 T03410224  RH  051%=      5-min Rain = 0
KST2 132246Z 17010KT 34/23 A2982 RMK A01 T03410225  RH  051%=      5-min Rain = 0
KST2 132247Z 16010KT 34/22 A2982 RMK A01 T03400223  RH  050%=      5-min Rain = 0
KST2 132248Z 16007KT 34/23 A2982 RMK A01 T03400225  RH  051%=      5-min Rain = 0
KST2 132249Z 15006KT 34/22 A2982 RMK A01 T03400222  RH  050%=      5-min Rain = 0
KST2 132250Z 16007KT 34/23 A2982 RMK A01 T03410226  RH  051%=      5-min Rain = 0
KST2 132251Z 17005KT 34/23 A2982 RMK A01 T03410228  RH  052%=      5-min Rain = 0
KST2 132252Z 17007KT 34/23 A2982 RMK A01 T03420229  RH  052%=      5-min Rain = 0
KST2 132253Z 16008KT 34/23 A2982 RMK A01 T03420227  RH  051%=      5-min Rain = 0
KST2 132254Z 16009KT 34/23 A2982 RMK A01 T03420230  RH  052%=      5-min Rain = 0
KST2 132255Z 17010KT 34/22 A2981 RMK A01 T03410224  RH  051%=      5-min Rain = 0
KST2 132256Z 16011KT 34/22 A2981 RMK A01 T03400224  RH  051%=      5-min Rain = 0
KST2 132257Z 14009KT 34/22 A2982 RMK A01 T03400224  RH  051%=      5-min Rain = 0
KST2 132258Z 13009KT 34/22 A2982 RMK A01 T03400222  RH  050%=      5-min Rain = 0
KST2 132259Z 13010KT 34/22 A2982 RMK A01 T03400224  RH  051%=      5-min Rain = 0
KST2 132300Z 13013KT 34/22 A2981 RMK A01 T03400223  RH  051%=      5-min Rain = 0
KST2 132301Z 14012KT 34/22 A2981 RMK A01 T03400222  RH  050%=      5-min Rain = 0
KST2 132302Z 14010KT 34/23 A2981 RMK A01 T03400226  RH  052%=      5-min Rain = 0
KST2 132303Z 14011KT 34/23 A2981 RMK A01 T03400225  RH  051%=      5-min Rain = 0
KST2 132304Z 15010KT 34/23 A2981 RMK A01 T03400225  RH  051%=      5-min Rain = 0
KST2 132305Z 15010KT 34/22 A2981 RMK A01 T03410223  RH  050%=      5-min Rain = 0
KST2 132306Z 14010KT 34/22 A2981 RMK A01 T03410222  RH  050%=      5-min Rain = 0
KST2 132307Z 13010KT 34/22 A2981 RMK A01 T03400224  RH  051%=      5-min Rain = 0
KST2 132308Z 14008KT 34/23 A2981 RMK A01 T03400225  RH  051%=      5-min Rain = 0
KST2 132309Z 13010KT 34/22 A2981 RMK A01 T03400223  RH  050%=      5-min Rain = 0
KST2 132310Z 13008KT 34/22 A2981 RMK A01 T03400223  RH  051%=      5-min Rain = 0
KST2 132311Z 15007KT 34/23 A2981 RMK A01 T03400225  RH  051%=      5-min Rain = 0
KST2 132312Z 15007KT 34/23 A2981 RMK A01 T03410227  RH  052%=      5-min Rain = 0
KST2 132313Z 14008KT 34/22 A2981 RMK A01 T03410221  RH  050%=      5-min Rain = 0
KST2 132314Z 14009KT 34/22 A2981 RMK A01 T03410221  RH  050%=      5-min Rain = 0
KST2 132315Z 15011KT 34/22 A2981 RMK A01 T03410221  RH  050%=      5-min Rain = 0
KST2 132316Z 14009KT 34/22 A298 RMK A01 T03410220  RH  049%=      5-min Rain = 0
KST2 132317Z 13008KT 34/23 A298 RMK A01 T03410226  RH  051%=      5-min Rain = 0
KST2 132318Z 14009KT 34/23 A298 RMK A01 T03410225  RH  051%=      5-min Rain = 0
KST2 132319Z 14012KT 34/22 A298 RMK A01 T03410220  RH  049%=      5-min Rain = 0
KST2 132320Z 14013KT 34/22 A298 RMK A01 T03410217  RH  048%=      5-min Rain = 0
KST2 132321Z 14012KT 34/22 A298 RMK A01 T03400217  RH  049%=      5-min Rain = 0
KST2 132322Z 14011KT 34/22 A298 RMK A01 T03400219  RH  049%=      5-min Rain = 0
KST2 132323Z 14011KT 34/22 A298 RMK A01 T03390219  RH  049%=      5-min Rain = 0
KST2 132324Z 13010KT 34/22 A298 RMK A01 T03390219  RH  050%=      5-min Rain = 0
KST2 132325Z 13007KT 34/22 A298 RMK A01 T03390220  RH  050%=      5-min Rain = 0
KST2 132326Z 14008KT 34/22 A298 RMK A01 T03400222  RH  050%=      5-min Rain = 0
KST2 132327Z 13007KT 34/22 A298 RMK A01 T03400222  RH  050%=      5-min Rain = 0
KST2 132328Z 14008KT 34/22 A298 RMK A01 T03400222  RH  050%=      5-min Rain = 0
KST2 132329Z 13009KT 34/22 A298 RMK A01 T03410221  RH  050%=      5-min Rain = 0
KST2 132330Z 13010KT 34/22 A298 RMK A01 T03410219  RH  049%=      5-min Rain = 0
KST2 132331Z 13009KT 34/22 A298 RMK A01 T03410215  RH  048%=      5-min Rain = 0
KST2 132332Z 14008KT 34/22 A298 RMK A01 T03400221  RH  050%=      5-min Rain = 0
KST2 132333Z 14009KT 34/22 A298 RMK A01 T03400218  RH  049%=      5-min Rain = 0
KST2 132334Z 13009KT 34/22 A298 RMK A01 T03410217  RH  049%=      5-min Rain = 0
KST2 132335Z 12012KT 34/22 A298 RMK A01 T03400220  RH  049%=      5-min Rain = 0
KST2 132336Z 12011KT 34/22 A298 RMK A01 T03400217  RH  049%=      5-min Rain = 0
KST2 132337Z 13012KT 34/22 A298 RMK A01 T03390217  RH  049%=      5-min Rain = 0
KST2 132338Z 15009KT 34/22 A298 RMK A01 T03390220  RH  050%=      5-min Rain = 0
KST2 132339Z 15009KT 34/22 A298 RMK A01 T03390215  RH  048%=      5-min Rain = 0
KST2 132340Z 15009KT 34/22 A298 RMK A01 T03390218  RH  049%=      5-min Rain = 0
KST2 132341Z 14011KT 34/21 A298 RMK A01 T03390213  RH  048%=      5-min Rain = 0
KST2 132342Z 14009KT 34/21 A298 RMK A01 T03390213  RH  048%=      5-min Rain = 0
KST2 132343Z 14009KT 34/21 A298 RMK A01 T03390214  RH  048%=      5-min Rain = 0
KST2 132344Z 14011KT 34/22 A298 RMK A01 T03390215  RH  048%=      5-min Rain = 0
KST2 132345Z 14012KT 34/21 A298 RMK A01 T03400214  RH  048%=      5-min Rain = 0
KST2 132346Z 12011KT 34/21 A298 RMK A01 T03400214  RH  048%=      5-min Rain = 0
KST2 132347Z 13010KT 34/22 A298 RMK A01 T03390215  RH  048%=      5-min Rain = 0
KST2 132348Z 12009KT 34/22 A298 RMK A01 T03390218  RH  049%=      5-min Rain = 0
KST2 132349Z 13009KT 34/22 A2981 RMK A01 T03390219  RH  050%=      5-min Rain = 0
KST2 132350Z 12009KT 34/22 A2981 RMK A01 T03390220  RH  050%=      5-min Rain = 0
KST2 132351Z 12011KT 34/22 A2981 RMK A01 T03380216  RH  049%=      5-min Rain = 0
KST2 132352Z 13009KT 34/22 A2981 RMK A01 T03380217  RH  049%=      5-min Rain = 0
KST2 132353Z 14009KT 34/22 A2981 RMK A01 T03370217  RH  049%=      5-min Rain = 0
KST2 132354Z 13010KT 34/21 A2981 RMK A01 T03380214  RH  048%=      5-min Rain = 0
KST2 132355Z 13011KT 34/21 A2981 RMK A01 T03380212  RH  048%=      5-min Rain = 0
KST2 132356Z 12010KT 34/21 A2981 RMK A01 T03380212  RH  048%=      5-min Rain = 0
KST2 132357Z 13013KT 34/21 A2981 RMK A01 T03390207  RH  046%=      5-min Rain = 0
KST2 132358Z 14012KT 34/21 A2981 RMK A01 T03390207  RH  046%=      5-min Rain = 0
KST2 132359Z 14012KT 34/21 A2981 RMK A01 T03390207  RH  046%=      5-min Rain = 0
KST2 140000Z 14011KT 34/21 A2981 RMK A01 T03390208  RH  046%=      5-min Rain = 0
KST2 140001Z 14011KT 34/21 A2981 RMK A01 T03390208  RH  047%=      5-min Rain = 0
KST2 140002Z 13009KT 34/21 A2981 RMK A01 T03390209  RH  047%=      5-min Rain = 0
KST2 140003Z 13011KT 34/21 A2981 RMK A01 T03380212  RH  048%=      5-min Rain = 0
KST2 140004Z 12012KT 34/21 A2981 RMK A01 T03380212  RH  048%=      5-min Rain = 0
KST2 140005Z 12011KT 34/21 A2981 RMK A01 T03370210  RH  048%=      5-min Rain = 0
KST2 140006Z 12011KT 34/21 A2981 RMK A01 T03360210  RH  048%=      5-min Rain = 0
KST2 140007Z 12013KT 34/21 A2981 RMK A01 T03370211  RH  048%=      5-min Rain = 0
KST2 140008Z 12013KT 34/21 A2981 RMK A01 T03360208  RH  047%=      5-min Rain = 0
KST2 140009Z 12013KT 34/21 A2981 RMK A01 T03360208  RH  047%=      5-min Rain = 0
KST2 140010Z 12012KT 34/21 A2981 RMK A01 T03360209  RH  047%=      5-min Rain = 0
KST2 140011Z 13010KT 34/21 A2981 RMK A01 T03360210  RH  048%=      5-min Rain = 0
KST2 140012Z 13009KT 34/21 A2981 RMK A01 T03360212  RH  048%=      5-min Rain = 0
KST2 140013Z 12009KT 34/21 A2981 RMK A01 T03360212  RH  048%=      5-min Rain = 0
KST2 140014Z 13013KT 34/21 A2981 RMK A01 T03350209  RH  048%=      5-min Rain = 0
KST2 140015Z 13013KT 34/20 A2981 RMK A01 T03350204  RH  046%=      5-min Rain = 0
KST2 140016Z 13010KT 34/21 A2981 RMK A01 T03350205  RH  046%=      5-min Rain = 0
KST2 140017Z 13010KT 34/21 A2981 RMK A01 T03350208  RH  047%=      5-min Rain = 0
KST2 140018Z 13011KT 33/21 A2982 RMK A01 T03340207  RH  047%=      5-min Rain = 0
KST2 140019Z 13009KT 33/21 A2982 RMK A01 T03340209  RH  048%=      5-min Rain = 0
KST2 140020Z 14009KT 33/21 A2982 RMK A01 T03320209  RH  048%=      5-min Rain = 0
KST2 140021Z 13009KT 33/21 A2982 RMK A01 T03320209  RH  048%=      5-min Rain = 0
KST2 140022Z 13010KT 33/21 A2981 RMK A01 T03320208  RH  048%=      5-min Rain = 0
KST2 140023Z 13010KT 33/21 A2981 RMK A01 T03320207  RH  048%=      5-min Rain = 0
KST2 140024Z 13010KT 33/21 A2981 RMK A01 T03330206  RH  048%=      5-min Rain = 0
KST2 140025Z 13011KT 33/20 A2981 RMK A01 T03340203  RH  046%=      5-min Rain = 0
KST2 140026Z 14011KT 33/20 A2981 RMK A01 T03340201  RH  045%=      5-min Rain = 0
KST2 140027Z 14011KT 34/20 A2981 RMK A01 T03350198  RH  045%=      5-min Rain = 0
KST2 140028Z 13008KT 34/20 A2982 RMK A01 T03350201  RH  045%=      5-min Rain = 0
KST2 140029Z 13009KT 34/20 A2982 RMK A01 T03350204  RH  046%=      5-min Rain = 0
KST2 140030Z 14010KT 33/20 A2982 RMK A01 T03340202  RH  046%=      5-min Rain = 0
KST2 140031Z 14009KT 33/20 A2982 RMK A01 T03330201  RH  046%=      5-min Rain = 0
KST2 140032Z 13008G13KT 33/20 A2982 RMK A01 T03320204  RH  047%=      5-min Rain = 0
KST2 140033Z 13010KT 33/20 A2981 RMK A01 T03320203  RH  047%=      5-min Rain = 0
KST2 140034Z 13010KT 33/20 A2981 RMK A01 T03310202  RH  047%=      5-min Rain = 0
KST2 140035Z 13011KT 33/20 A2981 RMK A01 T03310199  RH  046%=      5-min Rain = 0
KST2 140036Z 13010KT 33/20 A2981 RMK A01 T03310200  RH  046%=      5-min Rain = 0
KST2 140037Z 13011KT 33/20 A2981 RMK A01 T03310200  RH  046%=      5-min Rain = 0
KST2 140038Z 13012KT 33/20 A2981 RMK A01 T03310200  RH  046%=      5-min Rain = 0
KST2 140039Z 13011KT 33/20 A2981 RMK A01 T03300200  RH  046%=      5-min Rain = 0
KST2 140040Z 13011KT 33/20 A2981 RMK A01 T03290199  RH  046%=      5-min Rain = 0
KST2 140041Z 13011KT 33/20 A2981 RMK A01 T03290199  RH  046%=      5-min Rain = 0
KST2 140042Z 13010KT 33/20 A2981 RMK A01 T03280199  RH  047%=      5-min Rain = 0
KST2 140043Z 13009KT 33/20 A2981 RMK A01 T03280199  RH  047%=      5-min Rain = 0
KST2 140044Z 13009KT 33/20 A2981 RMK A01 T03270199  RH  047%=      5-min Rain = 0
KST2 140045Z 13008KT 33/20 A2981 RMK A01 T03260201  RH  048%=      5-min Rain = 0
KST2 140046Z 13010KT 32/20 A2981 RMK A01 T03240200  RH  048%=      5-min Rain = 0
KST2 140047Z 12009KT 32/20 A2981 RMK A01 T03240199  RH  048%=      5-min Rain = 0
KST2 140048Z 13009KT 32/20 A2981 RMK A01 T03240200  RH  048%=      5-min Rain = 0
KST2 140049Z 13009KT 32/20 A2981 RMK A01 T03230201  RH  049%=      5-min Rain = 0
KST2 140050Z 13008KT 32/20 A2982 RMK A01 T03220201  RH  049%=      5-min Rain = 0
KST2 140051Z 13009KT 32/20 A2982 RMK A01 T03220201  RH  049%=      5-min Rain = 0
KST2 140052Z 13008KT 32/20 A2982 RMK A01 T03220201  RH  049%=      5-min Rain = 0
KST2 140053Z 13009KT 32/20 A2982 RMK A01 T03210201  RH  049%=      5-min Rain = 0
KST2 140054Z 13008KT 32/20 A2982 RMK A01 T03210201  RH  049%=      5-min Rain = 0
KST2 140055Z 13008KT 32/20 A2982 RMK A01 T03210203  RH  050%=      5-min Rain = 0
KST2 140056Z 13009KT 32/20 A2982 RMK A01 T03200202  RH  050%=      5-min Rain = 0
KST2 140057Z 13009KT 32/20 A2982 RMK A01 T03200201  RH  049%=      5-min Rain = 0
KST2 140058Z 13008KT 32/20 A2982 RMK A01 T03200201  RH  050%=      5-min Rain = 0
KST2 140059Z 13009KT 32/20 A2982 RMK A01 T03200201  RH  050%=      5-min Rain = 0
KST2 140100Z 13010KT 32/20 A2982 RMK A01 T03200201  RH  049%=      5-min Rain = 0
KST2 140101Z 13010KT 32/20 A2982 RMK A01 T03200201  RH  049%=      5-min Rain = 0
KST2 140102Z 14009KT 32/20 A2982 RMK A01 T03200201  RH  049%=      5-min Rain = 0
KST2 140103Z 13009KT 32/20 A2982 RMK A01 T03190201  RH  050%=      5-min Rain = 0
KST2 140104Z 13010KT 32/20 A2982 RMK A01 T03190202  RH  050%=      5-min Rain = 0
KST2 140105Z 13009KT 32/20 A2982 RMK A01 T03190202  RH  050%=      5-min Rain = 0
KST2 140106Z 13010KT 32/20 A2982 RMK A01 T03180202  RH  050%=      5-min Rain = 0
KST2 140107Z 13010KT 32/20 A2982 RMK A01 T03180202  RH  050%=      5-min Rain = 0
KST2 140108Z 13009KT 32/20 A2982 RMK A01 T03180202  RH  050%=      5-min Rain = 0
KST2 140109Z 13010KT 32/20 A2981 RMK A01 T03170201  RH  050%=      5-min Rain = 0
KST2 140110Z 13010KT 32/20 A2981 RMK A01 T03170201  RH  050%=      5-min Rain = 0
KST2 140111Z 12010KT 32/20 A2981 RMK A01 T03170202  RH  051%=      5-min Rain = 0
KST2 140112Z 12009KT 32/20 A2981 RMK A01 T03160202  RH  051%=      5-min Rain = 0
KST2 140113Z 12009KT 32/20 A2981 RMK A01 T03160202  RH  051%=      5-min Rain = 0
KST2 140114Z 13009KT 32/20 A2981 RMK A01 T03150202  RH  051%=      5-min Rain = 0
KST2 140115Z 12008KT 32/20 A2981 RMK A01 T03150203  RH  051%=      5-min Rain = 0
KST2 140116Z 12009KT 31/20 A2981 RMK A01 T03140203  RH  052%=      5-min Rain = 0
KST2 140117Z 12010KT 31/21 A2981 RMK A01 T03130206  RH  053%=      5-min Rain = 0
KST2 140118Z 12010KT 31/21 A2981 RMK A01 T03130209  RH  054%=      5-min Rain = 0
KST2 140119Z 11012KT 31/21 A2981 RMK A01 T03120213  RH  056%=      5-min Rain = 0
KST2 140120Z 12010KT 31/22 A2981 RMK A01 T03110216  RH  057%=      5-min Rain = 0
KST2 140121Z 12010KT 31/22 A2981 RMK A01 T03110218  RH  058%=      5-min Rain = 0
KST2 140122Z 11011KT 31/22 A2981 RMK A01 T03100220  RH  059%=      5-min Rain = 0
KST2 140123Z 11010KT 31/22 A2981 RMK A01 T03090221  RH  059%=      5-min Rain = 0
KST2 140124Z 12008KT 31/22 A2981 RMK A01 T03090223  RH  060%=      5-min Rain = 0
KST2 140125Z 11009KT 31/22 A2981 RMK A01 T03070223  RH  061%=      5-min Rain = 0
KST2 140126Z 11010KT 31/22 A2981 RMK A01 T03060223  RH  061%=      5-min Rain = 0
KST2 140127Z 11009KT 31/22 A2981 RMK A01 T03060223  RH  061%=      5-min Rain = 0
KST2 140128Z 11010KT 31/22 A2981 RMK A01 T03060224  RH  062%=      5-min Rain = 0
KST2 140129Z 11010KT 31/22 A2981 RMK A01 T03050224  RH  062%=      5-min Rain = 0
KST2 140130Z 12011KT 31/23 A2981 RMK A01 T03050225  RH  062%=      5-min Rain = 0
KST2 140131Z 11011KT 31/23 A2981 RMK A01 T03050225  RH  063%=      5-min Rain = 0
KST2 140132Z 12011KT 30/23 A2981 RMK A01 T03040225  RH  063%=      5-min Rain = 0
KST2 140133Z 12010KT 30/23 A2981 RMK A01 T03040226  RH  063%=      5-min Rain = 0
KST2 140134Z 12010KT 30/23 A2981 RMK A01 T03030226  RH  063%=      5-min Rain = 0
KST2 140135Z 12010KT 30/23 A2981 RMK A01 T03030226  RH  064%=      5-min Rain = 0
KST2 140136Z 11011KT 30/23 A2981 RMK A01 T03020227  RH  064%=      5-min Rain = 0
KST2 140137Z 12010KT 30/23 A2981 RMK A01 T03020227  RH  064%=      5-min Rain = 0
KST2 140138Z 11010KT 30/23 A2981 RMK A01 T03020227  RH  064%=      5-min Rain = 0
KST2 140139Z 12010KT 30/23 A2981 RMK A01 T03020227  RH  064%=      5-min Rain = 0
KST2 140140Z 12011KT 30/23 A2981 RMK A01 T03010226  RH  064%=      5-min Rain = 0
KST2 140141Z 12011KT 30/23 A2981 RMK A01 T03010226  RH  064%=      5-min Rain = 0
KST2 140142Z 12010KT 30/23 A2981 RMK A01 T03010227  RH  064%=      5-min Rain = 0
KST2 140143Z 12010KT 30/23 A2981 RMK A01 T03020227  RH  064%=      5-min Rain = 0
KST2 140144Z 13009KT 30/23 A2981 RMK A01 T03010227  RH  064%=      5-min Rain = 0
KST2 140145Z 13010KT 30/23 A2981 RMK A01 T03010227  RH  065%=      5-min Rain = 0
KST2 140146Z 13010KT 30/23 A2981 RMK A01 T03000227  RH  065%=      5-min Rain = 0
KST2 140147Z 12010KT 30/23 A2982 RMK A01 T03000227  RH  065%=      5-min Rain = 0
KST2 140148Z 12010KT 30/23 A2982 RMK A01 T03000227  RH  065%=      5-min Rain = 0
KST2 140149Z 12010KT 30/23 A2982 RMK A01 T03000227  RH  065%=      5-min Rain = 0
KST2 140150Z 12009KT 30/23 A2982 RMK A01 T03000228  RH  065%=      5-min Rain = 0
KST2 140151Z 11009KT 30/23 A2982 RMK A01 T02990228  RH  066%=      5-min Rain = 0
KST2 140152Z 12009KT 30/23 A2982 RMK A01 T02980228  RH  066%=      5-min Rain = 0
KST2 140153Z 12009KT 30/23 A2982 RMK A01 T02980229  RH  066%=      5-min Rain = 0
KST2 140154Z 12008KT 30/23 A2982 RMK A01 T02970229  RH  067%=      5-min Rain = 0
KST2 140155Z 12009KT 30/23 A2982 RMK A01 T02970229  RH  067%=      5-min Rain = 0
KST2 140156Z 12007KT 30/23 A2982 RMK A01 T02960229  RH  067%=      5-min Rain = 0
KST2 140157Z 12009KT 30/23 A2982 RMK A01 T02960229  RH  068%=      5-min Rain = 0
KST2 140158Z 12008KT 30/23 A2982 RMK A01 T02950229  RH  068%=      5-min Rain = 0
KST2 140159Z 12008KT 30/23 A2982 RMK A01 T02950229  RH  067%=      5-min Rain = 0
KST2 140200Z 13007KT 30/23 A2982 RMK A01 T02950229  RH  067%=      5-min Rain = 0
KST2 140201Z 13007KT 30/23 A2983 RMK A01 T02960230  RH  068%=      5-min Rain = 0
KST2 140202Z 13007KT 30/23 A2983 RMK A01 T02950230  RH  068%=      5-min Rain = 0
KST2 140203Z 12007KT 29/23 A2983 RMK A01 T02940230  RH  068%=      5-min Rain = 0
KST2 140204Z 13007KT 29/23 A2983 RMK A01 T02940230  RH  068%=      5-min Rain = 0
KST2 140205Z 13007KT 29/23 A2983 RMK A01 T02940229  RH  068%=      5-min Rain = 0
KST2 140206Z 13008KT 29/23 A2983 RMK A01 T02940229  RH  068%=      5-min Rain = 0
KST2 140207Z 13009KT 29/23 A2983 RMK A01 T02940228  RH  068%=      5-min Rain = 0
KST2 140208Z 13009KT 29/23 A2983 RMK A01 T02940228  RH  068%=      5-min Rain = 0
KST2 140209Z 13008KT 29/23 A2983 RMK A01 T02940229  RH  068%=      5-min Rain = 0
KST2 140210Z 13009KT 29/23 A2983 RMK A01 T02940229  RH  068%=      5-min Rain = 0
KST2 140211Z 13008KT 30/23 A2983 RMK A01 T02950228  RH  068%=      5-min Rain = 0
KST2 140212Z 13007KT 30/23 A2983 RMK A01 T02950230  RH  068%=      5-min Rain = 0
KST2 140213Z 13008KT 30/23 A2983 RMK A01 T02950230  RH  068%=      5-min Rain = 0
KST2 140214Z 12008KT 29/23 A2983 RMK A01 T02940230  RH  068%=      5-min Rain = 0
KST2 140215Z 12008KT 29/23 A2983 RMK A01 T02940230  RH  069%=      5-min Rain = 0
KST2 140216Z 12008KT 29/23 A2983 RMK A01 T02930231  RH  069%=      5-min Rain = 0
KST2 140217Z 12008KT 29/23 A2983 RMK A01 T02930231  RH  069%=      5-min Rain = 0
KST2 140218Z 12007KT 29/23 A2983 RMK A01 T02930231  RH  069%=      5-min Rain = 0
KST2 140219Z 12007KT 29/23 A2983 RMK A01 T02920231  RH  070%=      5-min Rain = 0
KST2 140220Z 12008KT 29/23 A2983 RMK A01 T02920231  RH  070%=      5-min Rain = 0
KST2 140221Z 12010KT 29/23 A2983 RMK A01 T02910231  RH  070%=      5-min Rain = 0
KST2 140222Z 12009KT 29/23 A2983 RMK A01 T02910231  RH  070%=      5-min Rain = 0
KST2 140223Z 12009KT 29/23 A2983 RMK A01 T02910232  RH  070%=      5-min Rain = 0
KST2 140224Z 12011KT 29/23 A2983 RMK A01 T02910232  RH  070%=      5-min Rain = 0
KST2 140225Z 12009KT 29/23 A2983 RMK A01 T02910231  RH  070%=      5-min Rain = 0
KST2 140226Z 12010KT 29/23 A2983 RMK A01 T02910232  RH  071%=      5-min Rain = 0
KST2 140227Z 12008KT 29/23 A2983 RMK A01 T02910233  RH  071%=      5-min Rain = 0
KST2 140228Z 12010KT 29/23 A2983 RMK A01 T02900233  RH  071%=      5-min Rain = 0
KST2 140229Z 12009KT 29/23 A2983 RMK A01 T02900232  RH  071%=      5-min Rain = 0
KST2 140230Z 12009KT 29/23 A2983 RMK A01 T02900232  RH  071%=      5-min Rain = 0
KST2 140231Z 12009KT 29/23 A2983 RMK A01 T02900233  RH  071%=      5-min Rain = 0
KST2 140232Z 13009KT 29/23 A2983 RMK A01 T02890233  RH  072%=      5-min Rain = 0
KST2 140233Z 13009KT 29/23 A2983 RMK A01 T02890233  RH  072%=      5-min Rain = 0
KST2 140234Z 13011KT 29/23 A2983 RMK A01 T02890233  RH  072%=      5-min Rain = 0
KST2 140235Z 13011KT 29/23 A2983 RMK A01 T02890233  RH  072%=      5-min Rain = 0
KST2 140236Z 13011KT 29/23 A2983 RMK A01 T02890233  RH  072%=      5-min Rain = 0
KST2 140237Z 13010KT 29/23 A2983 RMK A01 T02890233  RH  072%=      5-min Rain = 0
KST2 140238Z 12012KT 29/23 A2983 RMK A01 T02890232  RH  072%=      5-min Rain = 0
KST2 140239Z 13011KT 29/23 A2982 RMK A01 T02890233  RH  072%=      5-min Rain = 0
KST2 140240Z 13012KT 29/23 A2982 RMK A01 T02890233  RH  072%=      5-min Rain = 0
KST2 140241Z 13013KT 29/23 A2982 RMK A01 T02890233  RH  072%=      5-min Rain = 0
KST2 140242Z 13012G18KT 29/23 A2982 RMK A01 T02890233  RH  072%=      5-min Rain = 0
KST2 140243Z 13010KT 29/23 A2982 RMK A01 T02890233  RH  072%=      5-min Rain = 0
KST2 140244Z 13012KT 29/23 A2982 RMK A01 T02890234  RH  072%=      5-min Rain = 0
KST2 140245Z 13011KT 29/23 A2982 RMK A01 T02880233  RH  072%=      5-min Rain = 0
KST2 140246Z 13011KT 29/23 A2982 RMK A01 T02880233  RH  072%=      5-min Rain = 0
KST2 140247Z 13011KT 29/23 A2982 RMK A01 T02880233  RH  072%=      5-min Rain = 0
KST2 140248Z 13010KT 29/23 A2982 RMK A01 T02880234  RH  073%=      5-min Rain = 0
KST2 140249Z 14011KT 29/23 A2982 RMK A01 T02880233  RH  072%=      5-min Rain = 0
KST2 140250Z 13012KT 29/23 A2983 RMK A01 T02880233  RH  072%=      5-min Rain = 0
KST2 140251Z 13010KT 29/23 A2983 RMK A01 T02880233  RH  072%=      5-min Rain = 0
KST2 140252Z 13011KT 29/23 A2983 RMK A01 T02880233  RH  072%=      5-min Rain = 0
KST2 140253Z 13010KT 29/23 A2983 RMK A01 T02870233  RH  072%=      5-min Rain = 0
KST2 140254Z 13011KT 29/23 A2983 RMK A01 T02880233  RH  072%=      5-min Rain = 0
KST2 140255Z 13009KT 29/23 A2983 RMK A01 T02880233  RH  072%=      5-min Rain = 0
KST2 140256Z 13010KT 29/23 A2983 RMK A01 T02880234  RH  073%=      5-min Rain = 0
KST2 140257Z 13011KT 29/23 A2982 RMK A01 T02870233  RH  073%=      5-min Rain = 0
KST2 140258Z 13011KT 29/23 A2983 RMK A01 T02870233  RH  073%=      5-min Rain = 0
KST2 140259Z 13012KT 29/23 A2983 RMK A01 T02870232  RH  073%=      5-min Rain = 0
KST2 140300Z 13012KT 29/23 A2983 RMK A01 T02870233  RH  072%=      5-min Rain = 0
KST2 140301Z 13010KT 29/23 A2983 RMK A01 T02870232  RH  072%=      5-min Rain = 0
KST2 140302Z 13009KT 29/23 A2983 RMK A01 T02870233  RH  073%=      5-min Rain = 0
KST2 140303Z 13011KT 29/23 A2983 RMK A01 T02860233  RH  073%=      5-min Rain = 0
KST2 140304Z 14010KT 29/23 A2983 RMK A01 T02860233  RH  073%=      5-min Rain = 0
KST2 140305Z 13011KT 29/23 A2983 RMK A01 T02860233  RH  073%=      5-min Rain = 0
KST2 140306Z 13011KT 29/23 A2983 RMK A01 T02860232  RH  072%=      5-min Rain = 0
KST2 140307Z 13010KT 29/23 A2983 RMK A01 T02860232  RH  073%=      5-min Rain = 0
KST2 140308Z 13010KT 29/23 A2984 RMK A01 T02860233  RH  073%=      5-min Rain = 0
KST2 140309Z 13010KT 29/23 A2984 RMK A01 T02860233  RH  073%=      5-min Rain = 0
KST2 140310Z 13011KT 29/23 A2984 RMK A01 T02850232  RH  073%=      5-min Rain = 0
KST2 140311Z 13011KT 29/23 A2984 RMK A01 T02850231  RH  073%=      5-min Rain = 0
KST2 140312Z 13010KT 29/23 A2984 RMK A01 T02850232  RH  073%=      5-min Rain = 0
KST2 140313Z 13010KT 29/23 A2984 RMK A01 T02850232  RH  073%=      5-min Rain = 0
KST2 140314Z 13009KT 29/23 A2984 RMK A01 T02850232  RH  073%=      5-min Rain = 0
KST2 140315Z 13010KT 29/23 A2984 RMK A01 T02850232  RH  073%=      5-min Rain = 0
KST2 140316Z 13011KT 29/23 A2984 RMK A01 T02850232  RH  073%=      5-min Rain = 0
KST2 140317Z 13011KT 28/23 A2984 RMK A01 T02840232  RH  073%=      5-min Rain = 0
KST2 140318Z 13012KT 28/23 A2984 RMK A01 T02840231  RH  073%=      5-min Rain = 0
KST2 140319Z 13009KT 28/23 A2984 RMK A01 T02840231  RH  073%=      5-min Rain = 0
KST2 140320Z 13011KT 28/23 A2984 RMK A01 T02840231  RH  073%=      5-min Rain = 0
KST2 140321Z 13011KT 28/23 A2984 RMK A01 T02840230  RH  073%=      5-min Rain = 0
KST2 140322Z 13010KT 28/23 A2984 RMK A01 T02840230  RH  072%=      5-min Rain = 0
KST2 140323Z 14010KT 28/23 A2984 RMK A01 T02840230  RH  073%=      5-min Rain = 0
KST2 140324Z 13010KT 29/23 A2984 RMK A01 T02850231  RH  073%=      5-min Rain = 0
KST2 140325Z 13011KT 28/23 A2984 RMK A01 T02840230  RH  073%=      5-min Rain = 0
KST2 140326Z 13011KT 28/23 A2984 RMK A01 T02840230  RH  073%=      5-min Rain = 0
KST2 140327Z 14010KT 28/23 A2984 RMK A01 T02840230  RH  073%=      5-min Rain = 0
KST2 140328Z 13009KT 28/23 A2984 RMK A01 T02830230  RH  073%=      5-min Rain = 0
KST2 140329Z 13010KT 28/23 A2984 RMK A01 T02830231  RH  073%=      5-min Rain = 0
KST2 140330Z 13010KT 28/23 A2984 RMK A01 T02820229  RH  073%=      5-min Rain = 0
KST2 140331Z 13010KT 28/23 A2984 RMK A01 T02830229  RH  073%=      5-min Rain = 0
KST2 140332Z 13010KT 28/23 A2984 RMK A01 T02830229  RH  073%=      5-min Rain = 0
KST2 140333Z 13010KT 28/23 A2985 RMK A01 T02830229  RH  073%=      5-min Rain = 0
KST2 140334Z 13009KT 28/23 A2985 RMK A01 T02830229  RH  073%=      5-min Rain = 0
KST2 140335Z 13010KT 28/23 A2985 RMK A01 T02830229  RH  073%=      5-min Rain = 0
KST2 140336Z 13009KT 28/23 A2985 RMK A01 T02830230  RH  073%=      5-min Rain = 0
KST2 140337Z 13010KT 28/23 A2985 RMK A01 T02830230  RH  073%=      5-min Rain = 0
KST2 140338Z 13009KT 28/23 A2985 RMK A01 T02830230  RH  073%=      5-min Rain = 0
KST2 140339Z 13008KT 28/23 A2985 RMK A01 T02830230  RH  073%=      5-min Rain = 0
KST2 140340Z 13008KT 28/23 A2985 RMK A01 T02820229  RH  073%=      5-min Rain = 0
KST2 140341Z 13010KT 28/23 A2985 RMK A01 T02820229  RH  073%=      5-min Rain = 0
KST2 140342Z 13009KT 28/23 A2985 RMK A01 T02820229  RH  073%=      5-min Rain = 0
KST2 140343Z 13009KT 28/23 A2985 RMK A01 T02820228  RH  073%=      5-min Rain = 0
KST2 140344Z 13009KT 28/23 A2985 RMK A01 T02820229  RH  073%=      5-min Rain = 0
KST2 140345Z 13009KT 28/23 A2984 RMK A01 T02820228  RH  073%=      5-min Rain = 0
KST2 140346Z 13008KT 28/23 A2984 RMK A01 T02820229  RH  073%=      5-min Rain = 0
KST2 140347Z 12008KT 28/23 A2985 RMK A01 T02820229  RH  073%=      5-min Rain = 0
KST2 140348Z 12008KT 28/23 A2985 RMK A01 T02810228  RH  073%=      5-min Rain = 0
KST2 140349Z 13008KT 28/23 A2985 RMK A01 T02810229  RH  073%=      5-min Rain = 0
KST2 140350Z 13007KT 28/23 A2985 RMK A01 T02810229  RH  073%=      5-min Rain = 0
KST2 140351Z 12008KT 28/23 A2985 RMK A01 T02810229  RH  074%=      5-min Rain = 0
KST2 140352Z 13008KT 28/23 A2984 RMK A01 T02800228  RH  073%=      5-min Rain = 0
KST2 140353Z 13008KT 28/23 A2984 RMK A01 T02800228  RH  073%=      5-min Rain = 0
KST2 140354Z 13008KT 28/23 A2984 RMK A01 T02800228  RH  073%=      5-min Rain = 0
KST2 140355Z 13008KT 28/23 A2984 RMK A01 T02800228  RH  073%=      5-min Rain = 0
KST2 140356Z 13007KT 28/23 A2984 RMK A01 T02800228  RH  073%=      5-min Rain = 0
KST2 140357Z 13008KT 28/23 A2984 RMK A01 T02800229  RH  074%=      5-min Rain = 0
KST2 140358Z 14009KT 28/23 A2984 RMK A01 T02790228  RH  074%=      5-min Rain = 0
KST2 140359Z 13008KT 28/23 A2984 RMK A01 T02790228  RH  074%=      5-min Rain = 0
KST2 140400Z 14008KT 28/23 A2984 RMK A01 T02790228  RH  074%=      5-min Rain = 0
KST2 140401Z 13010KT 28/23 A2984 RMK A01 T02790227  RH  073%=      5-min Rain = 0
KST2 140402Z 14009KT 28/23 A2984 RMK A01 T02790227  RH  073%=      5-min Rain = 0
KST2 140403Z 14009KT 28/23 A2984 RMK A01 T02790227  RH  073%=      5-min Rain = 0
KST2 140404Z 13011KT 28/23 A2984 RMK A01 T02790227  RH  073%=      5-min Rain = 0
KST2 140405Z 14010KT 28/23 A2984 RMK A01 T02790227  RH  073%=      5-min Rain = 0
KST2 140406Z 14010KT 28/23 A2984 RMK A01 T02790227  RH  073%=      5-min Rain = 0
KST2 140407Z 14008KT 28/23 A2984 RMK A01 T02790227  RH  073%=      5-min Rain = 0
KST2 140408Z 14009KT 28/23 A2984 RMK A01 T02790227  RH  073%=      5-min Rain = 0
KST2 140409Z 14007KT 28/23 A2984 RMK A01 T02790227  RH  073%=      5-min Rain = 0
KST2 140410Z 15008KT 28/23 A2985 RMK A01 T02790228  RH  074%=      5-min Rain = 0
KST2 140411Z 15009KT 28/23 A2985 RMK A01 T02790227  RH  073%=      5-min Rain = 0
KST2 140412Z 15008KT 28/23 A2985 RMK A01 T02790227  RH  073%=      5-min Rain = 0
KST2 140413Z 14009KT 28/23 A2985 RMK A01 T02790227  RH  074%=      5-min Rain = 0
KST2 140414Z 15007KT 28/23 A2986 RMK A01 T02790227  RH  074%=      5-min Rain = 0
KST2 140415Z 15007KT 28/23 A2986 RMK A01 T02790229  RH  074%=      5-min Rain = 0
KST2 140416Z 15007KT 28/23 A2986 RMK A01 T02780229  RH  075%=      5-min Rain = 0
KST2 140417Z 15007KT 28/23 A2986 RMK A01 T02780229  RH  075%=      5-min Rain = 0
KST2 140418Z 15007KT 28/23 A2986 RMK A01 T02780229  RH  075%=      5-min Rain = 0
KST2 140419Z 15007KT 28/23 A2986 RMK A01 T02770229  RH  075%=      5-min Rain = 0
KST2 140420Z 15007KT 28/23 A2986 RMK A01 T02770230  RH  075%=      5-min Rain = 0
KST2 140421Z 15007KT 28/23 A2986 RMK A01 T02770229  RH  075%=      5-min Rain = 0
KST2 140422Z 15007KT 28/23 A2986 RMK A01 T02770229  RH  075%=      5-min Rain = 0
KST2 140423Z 15006KT 28/23 A2986 RMK A01 T02760229  RH  076%=      5-min Rain = 0
KST2 140424Z 15006KT 28/23 A2986 RMK A01 T02760230  RH  076%=      5-min Rain = 0
KST2 140425Z 16007KT 28/23 A2986 RMK A01 T02760230  RH  076%=      5-min Rain = 0
KST2 140426Z 18006KT 28/23 A2986 RMK A01 T02760230  RH  076%=      5-min Rain = 0
KST2 140427Z 19006KT 28/23 A2986 RMK A01 T02760231  RH  077%=      5-min Rain = 0
KST2 140428Z 19007KT 28/23 A2986 RMK A01 T02760231  RH  077%=      5-min Rain = 0
KST2 140429Z 20008KT 28/23 A2986 RMK A01 T02750231  RH  077%=      5-min Rain = 0
KST2 140430Z 21010KT 28/23 A2986 RMK A01 T02750232  RH  077%=      5-min Rain = 0
KST2 140431Z 22010KT 28/23 A2986 RMK A01 T02750232  RH  077%=      5-min Rain = 0
KST2 140432Z 22011KT 27/23 A2986 RMK A01 T02740231  RH  077%=      5-min Rain = 0
KST2 140433Z 22010KT 27/23 A2986 RMK A01 T02740232  RH  078%=      5-min Rain = 0
KST2 140434Z 22010KT 27/23 A2986 RMK A01 T02730232  RH  078%=      5-min Rain = 0
KST2 140435Z 22009KT 27/23 A2985 RMK A01 T02730232  RH  078%=      5-min Rain = 0
KST2 140436Z 22008KT 27/23 A2985 RMK A01 T02720231  RH  078%=      5-min Rain = 0
KST2 140437Z 21008KT 27/23 A2985 RMK A01 T02730232  RH  079%=      5-min Rain = 0
KST2 140438Z 20008KT 27/23 A2985 RMK A01 T02720232  RH  079%=      5-min Rain = 0
KST2 140439Z 20008KT 27/23 A2985 RMK A01 T02720231  RH  078%=      5-min Rain = 0
KST2 140440Z 20008KT 27/23 A2985 RMK A01 T02720230  RH  078%=      5-min Rain = 0
KST2 140441Z 20008KT 27/23 A2985 RMK A01 T02730230  RH  078%=      5-min Rain = 0
KST2 140442Z 21008KT 27/23 A2985 RMK A01 T02730232  RH  078%=      5-min Rain = 0
KST2 140443Z 22007KT 27/23 A2985 RMK A01 T02730232  RH  078%=      5-min Rain = 0
KST2 140444Z 21007KT 27/23 A2986 RMK A01 T02720232  RH  079%=      5-min Rain = 0
KST2 140445Z 21006KT 27/23 A2985 RMK A01 T02710232  RH  079%=      5-min Rain = 0
KST2 140446Z 21006KT 27/23 A2985 RMK A01 T02710232  RH  079%=      5-min Rain = 0
KST2 140447Z 21007KT 27/23 A2985 RMK A01 T02700231  RH  079%=      5-min Rain = 0
KST2 140448Z 20008KT 27/23 A2986 RMK A01 T02710229  RH  078%=      5-min Rain = 0
KST2 140449Z 20007KT 27/23 A2986 RMK A01 T02710229  RH  078%=      5-min Rain = 0
KST2 140450Z 19007KT 27/23 A2985 RMK A01 T02720229  RH  077%=      5-min Rain = 0
KST2 140451Z 19007KT 27/23 A2985 RMK A01 T02720229  RH  077%=      5-min Rain = 0
KST2 140452Z 19007KT 27/23 A2985 RMK A01 T02730228  RH  077%=      5-min Rain = 0
KST2 140453Z 18007KT 27/23 A2985 RMK A01 T02730229  RH  077%=      5-min Rain = 0
KST2 140454Z 18007KT 27/23 A2985 RMK A01 T02730229  RH  077%=      5-min Rain = 0
KST2 140455Z 17008KT 27/23 A2986 RMK A01 T02730229  RH  077%=      5-min Rain = 0
KST2 140456Z 18007KT 27/23 A2986 RMK A01 T02730229  RH  077%=      5-min Rain = 0
KST2 140457Z 19007KT 27/23 A2986 RMK A01 T02730229  RH  077%=      5-min Rain = 0
KST2 140458Z 18007KT 27/23 A2986 RMK A01 T02730228  RH  076%=      5-min Rain = 0
KST2 140459Z 18006KT 27/23 A2986 RMK A01 T02730228  RH  076%=      5-min Rain = 0
KST2 140500Z 18006KT 27/23 A2987 RMK A01 T02730229  RH  077%=      5-min Rain = 0

Page generated in 0.1082 seconds.